
Distance (Route):
Temperature : 0°C
Humidity : 0%
Pressure : 0hPa| Receiver | Frames | First received | Last received |
|---|---|---|---|
| 9A1FER-10 | 211 | 2026-09-03 11:56:22 | 2026-09-03 13:01:58 |
| 9A1FER-15 | 152 | 2026-09-03 11:56:18 | 2026-09-03 12:58:17 |
| 9A1FER-3 | 112 | 2026-09-03 11:56:12 | 2026-09-03 13:00:37 |
| OM5KV | 52 | 2026-09-03 12:05:22 | 2026-09-03 12:12:04 |
| PETON7-10 | 28 | 2026-09-03 12:35:46 | 2026-09-03 12:49:59 |
| OE3JTB-15 | 6 | 2026-09-03 11:56:37 | 2026-09-03 12:25:20 |
| Receiver | Date | Latitude | Longitude | Direction | Speed | Altitude | Climb | Temperature | Humidity | Pressure | Voltage | Killtimer | Uptime | BKT | XDATA |
|---|---|---|---|---|---|---|---|---|---|---|---|---|---|---|---|
| 9A1FER-10 | 2026-09-03 13:01:58 | 45.51093 | 15.11281 | 140° | 62km/h | 7205m | -15.2m/s | 0°C | 0% | 0hPa | 0V | 00:00:00 | 00:00:00 | 00:00:00 | |
| 9A1FER-10 | 2026-09-03 13:01:38 | 45.51332 | 15.10993 | 144° | 66km/h | 7506m | -14.9m/s | 0°C | 0% | 0hPa | 0V | 00:00:00 | 00:00:00 | 00:00:00 | |
| 9A1FER-10 | 2026-09-03 13:01:08 | 45.51758 | 15.10594 | 154° | 80km/h | 7960m | -14.9m/s | 0°C | 0% | 0hPa | 0V | 00:00:00 | 00:00:00 | 00:00:00 | |
| 9A1FER-10 | 2026-09-03 13:00:45 | 45.52136 | 15.10273 | 148° | 86km/h | 8327m | -14.6m/s | 0°C | 0% | 0hPa | 0V | 00:00:00 | 00:00:00 | 00:00:00 | |
| 9A1FER-3 | 2026-09-03 13:00:37 | 45.52282 | 15.10140 | 147° | 91km/h | 8444m | -14.6m/s | 0°C | 0% | 0hPa | 0V | 00:00:00 | 00:00:00 | 00:00:00 | |
| 9A1FER-10 | 2026-09-03 13:00:30 | 45.52410 | 15.10015 | 146° | 93km/h | 8551m | -15.7m/s | 0°C | 0% | 0hPa | 0V | 00:00:00 | 00:00:00 | 00:00:00 | |
| 9A1FER-10 | 2026-09-03 13:00:04 | 45.52915 | 15.09560 | 147° | 93km/h | 8956m | -16.9m/s | 0°C | 0% | 0hPa | 0V | 00:00:00 | 00:00:00 | 00:00:00 | |
| 9A1FER-10 | 2026-09-03 12:59:47 | 45.53262 | 15.09283 | 151° | 97km/h | 9226m | -15.6m/s | 0°C | 0% | 0hPa | 0V | 00:00:00 | 00:00:00 | 00:00:00 | |
| 9A1FER-10 | 2026-09-03 12:59:32 | 45.53580 | 15.09027 | 153° | 100km/h | 9454m | -16.6m/s | 0°C | 0% | 0hPa | 0V | 00:00:00 | 00:00:00 | 00:00:00 | |
| 9A1FER-10 | 2026-09-03 12:59:08 | 45.54123 | 15.08642 | 153° | 113km/h | 9845m | -17.3m/s | 0°C | 0% | 0hPa | 0V | 00:00:00 | 00:00:00 | 00:00:00 | |
| 9A1FER-3 | 2026-09-03 12:58:34 | 45.55020 | 15.08064 | 158° | 117km/h | 10436m | -17.0m/s | 0°C | 0% | 0hPa | 0V | 00:00:00 | 00:00:00 | 00:00:00 | |
| 9A1FER-10 | 2026-09-03 12:58:30 | 45.55130 | 15.07999 | 157° | 115km/h | 10502m | -17.1m/s | 0°C | 0% | 0hPa | 0V | 00:00:00 | 00:00:00 | 00:00:00 | |
| 9A1FER-3 | 2026-09-03 12:58:19 | 45.55419 | 15.07812 | 155° | 119km/h | 10691m | -15.8m/s | 0°C | 0% | 0hPa | 0V | 00:00:00 | 00:00:00 | 00:00:00 | |
| 9A1FER-15 | 2026-09-03 12:58:17 | 45.55472 | 15.07775 | 155° | 120km/h | 10724m | -17.7m/s | 0°C | 0% | 0hPa | 0V | 00:00:00 | 00:00:00 | 00:00:00 | |
| 9A1FER-10 | 2026-09-03 12:58:15 | 45.55526 | 15.07739 | 156° | 115km/h | 10759m | -16.5m/s | 0°C | 0% | 0hPa | 0V | 00:00:00 | 00:00:00 | 00:00:00 | |
| 9A1FER-3 | 2026-09-03 12:58:04 | 45.55815 | 15.07540 | 157° | 126km/h | 10972m | -18.9m/s | 0°C | 0% | 0hPa | 0V | 00:00:00 | 00:00:00 | 00:00:00 | |
| 9A1FER-10 | 2026-09-03 12:58:00 | 45.55925 | 15.07474 | 157° | 130km/h | 11053m | -19.4m/s | 0°C | 0% | 0hPa | 0V | 00:00:00 | 00:00:00 | 00:00:00 | |
| 9A1FER-3 | 2026-09-03 12:57:44 | 45.56405 | 15.07201 | 160° | 124km/h | 11340m | -18.4m/s | 0°C | 0% | 0hPa | 0V | 00:00:00 | 00:00:00 | 00:00:00 | |
| 9A1FER-10 | 2026-09-03 12:57:43 | 45.56435 | 15.07185 | 159° | 122km/h | 11359m | -18.4m/s | 0°C | 0% | 0hPa | 0V | 00:00:00 | 00:00:00 | 00:00:00 | |
| 9A1FER-15 | 2026-09-03 12:57:34 | 45.56697 | 15.07037 | 160° | 111km/h | 11529m | -19.6m/s | 0°C | 0% | 0hPa | 0V | 00:00:00 | 00:00:00 | 00:00:00 | |
| 9A1FER-3 | 2026-09-03 12:57:28 | 45.56858 | 15.06942 | 157° | 111km/h | 11646m | -18.6m/s | 0°C | 0% | 0hPa | 0V | 00:00:00 | 00:00:00 | 00:00:00 | |
| 9A1FER-3 | 2026-09-03 12:57:13 | 45.57208 | 15.06674 | 150° | 106km/h | 11940m | -18.8m/s | 0°C | 0% | 0hPa | 0V | 00:00:00 | 00:00:00 | 00:00:00 | |
| 9A1FER-15 | 2026-09-03 12:57:04 | 45.57405 | 15.06483 | 142° | 113km/h | 12111m | -19.4m/s | 0°C | 0% | 0hPa | 0V | 00:00:00 | 00:00:00 | 00:00:00 | |
| 9A1FER-3 | 2026-09-03 12:56:58 | 45.57532 | 15.06337 | 143° | 113km/h | 12226m | -17.8m/s | 0°C | 0% | 0hPa | 0V | 00:00:00 | 00:00:00 | 00:00:00 | |
| 9A1FER-15 | 2026-09-03 12:56:44 | 45.57862 | 15.05991 | 147° | 110km/h | 12493m | -20.0m/s | 0°C | 0% | 0hPa | 0V | 00:00:00 | 00:00:00 | 00:00:00 | |
| 9A1FER-3 | 2026-09-03 12:56:43 | 45.57886 | 15.05968 | 147° | 108km/h | 12512m | -18.6m/s | 0°C | 0% | 0hPa | 0V | 00:00:00 | 00:00:00 | 00:00:00 | |
| 9A1FER-15 | 2026-09-03 12:56:28 | 45.58236 | 15.05662 | 145° | 97km/h | 12817m | -20.1m/s | 0°C | 0% | 0hPa | 0V | 00:00:00 | 00:00:00 | 00:00:00 | |
| 9A1FER-3 | 2026-09-03 12:56:24 | 45.58305 | 15.05575 | 133° | 84km/h | 12904m | -21.9m/s | 0°C | 0% | 0hPa | 0V | 00:00:00 | 00:00:00 | 00:00:00 | |
| 9A1FER-15 | 2026-09-03 12:56:13 | 45.58505 | 15.05273 | 139° | 84km/h | 13138m | -19.1m/s | 0°C | 0% | 0hPa | 0V | 00:00:00 | 00:00:00 | 00:00:00 | |
| 9A1FER-10 | 2026-09-03 12:55:58 | 45.58759 | 15.04963 | 141° | 73km/h | 13428m | -19.2m/s | 0°C | 0% | 0hPa | 0V | 00:00:00 | 00:00:00 | 00:00:00 | |
| 9A1FER-10 | 2026-09-03 12:55:43 | 45.58955 | 15.04696 | 132° | 71km/h | 13719m | -19.5m/s | 0°C | 0% | 0hPa | 0V | 00:00:00 | 00:00:00 | 00:00:00 | |
| 9A1FER-10 | 2026-09-03 12:55:28 | 45.59122 | 15.04391 | 130° | 77km/h | 14013m | -20.2m/s | 0°C | 0% | 0hPa | 0V | 00:00:00 | 00:00:00 | 00:00:00 | |
| 9A1FER-15 | 2026-09-03 12:55:26 | 45.59146 | 15.04348 | 129° | 73km/h | 14052m | -19.2m/s | 0°C | 0% | 0hPa | 0V | 00:00:00 | 00:00:00 | 00:00:00 | |
| 9A1FER-10 | 2026-09-03 12:55:13 | 45.59307 | 15.04069 | 131° | 71km/h | 14315m | -20.8m/s | 0°C | 0% | 0hPa | 0V | 00:00:00 | 00:00:00 | 00:00:00 | |
| 9A1FER-15 | 2026-09-03 12:55:01 | 45.59437 | 15.03820 | 122° | 68km/h | 14602m | -23.8m/s | 0°C | 0% | 0hPa | 0V | 00:00:00 | 00:00:00 | 00:00:00 | |
| 9A1FER-10 | 2026-09-03 12:54:58 | 45.59462 | 15.03756 | 120° | 73km/h | 14675m | -24.3m/s | 0°C | 0% | 0hPa | 0V | 00:00:00 | 00:00:00 | 00:00:00 | |
| 9A1FER-15 | 2026-09-03 12:54:46 | 45.59584 | 15.03491 | 133° | 58km/h | 14974m | -25.7m/s | 0°C | 0% | 0hPa | 0V | 00:00:00 | 00:00:00 | 00:00:00 | |
| 9A1FER-10 | 2026-09-03 12:54:43 | 45.59621 | 15.03436 | 136° | 60km/h | 15054m | -26.2m/s | 0°C | 0% | 0hPa | 0V | 00:00:00 | 00:00:00 | 00:00:00 | |
| 9A1FER-10 | 2026-09-03 12:54:28 | 45.59790 | 15.03218 | 138° | 55km/h | 15396m | -21.7m/s | 0°C | 0% | 0hPa | 0V | 00:00:00 | 00:00:00 | 00:00:00 | |
| 9A1FER-3 | 2026-09-03 12:54:18 | 45.59876 | 15.03073 | 125° | 38km/h | 15623m | -22.1m/s | 0°C | 0% | 0hPa | 0V | 00:00:00 | 00:00:00 | 00:00:00 | |
| 9A1FER-10 | 2026-09-03 12:54:13 | 45.59918 | 15.02989 | 126° | 60km/h | 15734m | -22.2m/s | 0°C | 0% | 0hPa | 0V | 00:00:00 | 00:00:00 | 00:00:00 | |
| 9A1FER-10 | 2026-09-03 12:53:58 | 45.60063 | 15.02730 | 131° | 60km/h | 16083m | -24.0m/s | 0°C | 0% | 0hPa | 0V | 00:00:00 | 00:00:00 | 00:00:00 | |
| 9A1FER-10 | 2026-09-03 12:53:43 | 45.60233 | 15.02507 | 142° | 51km/h | 16446m | -24.5m/s | 0°C | 0% | 0hPa | 0V | 00:00:00 | 00:00:00 | 00:00:00 | |
| 9A1FER-10 | 2026-09-03 12:53:28 | 45.60373 | 15.02325 | 128° | 44km/h | 16816m | -24.4m/s | 0°C | 0% | 0hPa | 0V | 00:00:00 | 00:00:00 | 00:00:00 | |
| 9A1FER-10 | 2026-09-03 12:53:13 | 45.60456 | 15.02120 | 121° | 33km/h | 17188m | -24.0m/s | 0°C | 0% | 0hPa | 0V | 00:00:00 | 00:00:00 | 00:00:00 | |
| 9A1FER-10 | 2026-09-03 12:52:57 | 45.60548 | 15.01990 | 139° | 31km/h | 17573m | -23.7m/s | 0°C | 0% | 0hPa | 0V | 00:00:00 | 00:00:00 | 00:00:00 | |
| 9A1FER-10 | 2026-09-03 12:52:37 | 45.60649 | 15.01815 | 127° | 35km/h | 18077m | -24.6m/s | 0°C | 0% | 0hPa | 0V | 00:00:00 | 00:00:00 | 00:00:00 | |
| 9A1FER-10 | 2026-09-03 12:52:22 | 45.60720 | 15.01658 | 105° | 24km/h | 18470m | -25.3m/s | 0°C | 0% | 0hPa | 0V | 00:00:00 | 00:00:00 | 00:00:00 | |
| 9A1FER-10 | 2026-09-03 12:52:05 | 45.60749 | 15.01518 | 102° | 13km/h | 18920m | -25.1m/s | 0°C | 0% | 0hPa | 0V | 00:00:00 | 00:00:00 | 00:00:00 | |
| 9A1FER-10 | 2026-09-03 12:51:50 | 45.60762 | 15.01456 | 104° | 20km/h | 19319m | -26.0m/s | 0°C | 0% | 0hPa | 0V | 00:00:00 | 00:00:00 | 00:00:00 | |
| 9A1FER-10 | 2026-09-03 12:51:34 | 45.60800 | 15.01365 | 125° | 7km/h | 19752m | -26.1m/s | 0°C | 0% | 0hPa | 0V | 00:00:00 | 00:00:00 | 00:00:00 | |
| 9A1FER-10 | 2026-09-03 12:50:58 | 45.60807 | 15.01300 | 135° | 18km/h | 20814m | -30.9m/s | 0°C | 0% | 0hPa | 0V | 00:00:00 | 00:00:00 | 00:00:00 | |
| 9A1FER-10 | 2026-09-03 12:50:39 | 45.60858 | 15.01210 | 125° | 18km/h | 21419m | -31.1m/s | 0°C | 0% | 0hPa | 0V | 00:00:00 | 00:00:00 | 00:00:00 | |
| 9A1FER-15 | 2026-09-03 12:50:21 | 45.60920 | 15.01173 | 199° | 16km/h | 22027m | -33.5m/s | 0°C | 0% | 0hPa | 0V | 00:00:00 | 00:00:00 | 00:00:00 | |
| 9A1FER-3 | 2026-09-03 12:50:05 | 45.60922 | 15.01226 | 298° | 13km/h | 22666m | -44.8m/s | 0°C | 0% | 0hPa | 0V | 00:00:00 | 00:00:00 | 00:00:00 | |
| PETON7-10 | 2026-09-03 12:49:59 | 45.60902 | 15.01258 | 335° | 11km/h | 22924m | -48.8m/s | 0°C | 0% | 0hPa | 0V | 00:00:00 | 00:00:00 | 00:00:00 | |
| 9A1FER-15 | 2026-09-03 12:49:57 | 45.60895 | 15.01262 | 338° | 13km/h | 23022m | -48.0m/s | 0°C | 0% | 0hPa | 0V | 00:00:00 | 00:00:00 | 00:00:00 | |
| 9A1FER-3 | 2026-09-03 12:49:50 | 45.60885 | 15.01253 | 67° | 13km/h | 23346m | -42.0m/s | 0°C | 0% | 0hPa | 0V | 00:00:00 | 00:00:00 | 00:00:00 | |
| PETON7-10 | 2026-09-03 12:49:34 | 45.60862 | 15.01270 | 67° | 16km/h | 23980m | -20.7m/s | 0°C | 0% | 0hPa | 0V | 00:00:00 | 00:00:00 | 00:00:00 | |
| 9A1FER-10 | 2026-09-03 12:49:26 | 45.60850 | 15.01235 | 19° | 20km/h | 23978m | 5.9m/s | 0°C | 0% | 0hPa | 0V | 00:00:00 | 00:00:00 | 00:00:00 | |
| 9A1FER-15 | 2026-09-03 12:49:23 | 45.60840 | 15.01228 | 43° | 20km/h | 23963m | 7.2m/s | 0°C | 0% | 0hPa | 0V | 00:00:00 | 00:00:00 | 00:00:00 | |
| 9A1FER-3 | 2026-09-03 12:49:20 | 45.60833 | 15.01207 | 83° | 20km/h | 23945m | 6.2m/s | 0°C | 0% | 0hPa | 0V | 00:00:00 | 00:00:00 | 00:00:00 | |
| PETON7-10 | 2026-09-03 12:49:18 | 45.60830 | 15.01197 | 45° | 22km/h | 23935m | 7.5m/s | 0°C | 0% | 0hPa | 0V | 00:00:00 | 00:00:00 | 00:00:00 | |
| 9A1FER-10 | 2026-09-03 12:49:11 | 45.60791 | 15.01185 | 33° | 18km/h | 23894m | 4.8m/s | 0°C | 0% | 0hPa | 0V | 00:00:00 | 00:00:00 | 00:00:00 | |
| 9A1FER-15 | 2026-09-03 12:49:08 | 45.60783 | 15.01175 | 31° | 20km/h | 23876m | 6.7m/s | 0°C | 0% | 0hPa | 0V | 00:00:00 | 00:00:00 | 00:00:00 | |
| PETON7-10 | 2026-09-03 12:48:59 | 45.60739 | 15.01151 | 339° | 22km/h | 23829m | 7.0m/s | 0°C | 0% | 0hPa | 0V | 00:00:00 | 00:00:00 | 00:00:00 | |
| 9A1FER-10 | 2026-09-03 12:48:56 | 45.60726 | 15.01160 | 345° | 24km/h | 23813m | 4.8m/s | 0°C | 0% | 0hPa | 0V | 00:00:00 | 00:00:00 | 00:00:00 | |
| 9A1FER-15 | 2026-09-03 12:48:53 | 45.60710 | 15.01158 | 14° | 24km/h | 23798m | 5.1m/s | 0°C | 0% | 0hPa | 0V | 00:00:00 | 00:00:00 | 00:00:00 | |
| 9A1FER-3 | 2026-09-03 12:48:50 | 45.60689 | 15.01156 | 355° | 22km/h | 23780m | 5.8m/s | 0°C | 0% | 0hPa | 0V | 00:00:00 | 00:00:00 | 00:00:00 | |
| PETON7-10 | 2026-09-03 12:48:42 | 45.60642 | 15.01170 | 348° | 16km/h | 23735m | 4.7m/s | 0°C | 0% | 0hPa | 0V | 00:00:00 | 00:00:00 | 00:00:00 | |
| 9A1FER-10 | 2026-09-03 12:48:41 | 45.60637 | 15.01171 | 350° | 20km/h | 23730m | 6.0m/s | 0°C | 0% | 0hPa | 0V | 00:00:00 | 00:00:00 | 00:00:00 | |
| 9A1FER-15 | 2026-09-03 12:48:39 | 45.60618 | 15.01179 | 343° | 18km/h | 23715m | 6.5m/s | 0°C | 0% | 0hPa | 0V | 00:00:00 | 00:00:00 | 00:00:00 | |
| 9A1FER-3 | 2026-09-03 12:48:35 | 45.60608 | 15.01182 | 352° | 18km/h | 23699m | 6.6m/s | 0°C | 0% | 0hPa | 0V | 00:00:00 | 00:00:00 | 00:00:00 | |
| 9A1FER-10 | 2026-09-03 12:48:26 | 45.60569 | 15.01206 | 355° | 13km/h | 23645m | 6.3m/s | 0°C | 0% | 0hPa | 0V | 00:00:00 | 00:00:00 | 00:00:00 | |
| PETON7-10 | 2026-09-03 12:48:25 | 45.60567 | 15.01207 | 351° | 15km/h | 23639m | 5.3m/s | 0°C | 0% | 0hPa | 0V | 00:00:00 | 00:00:00 | 00:00:00 | |
| 9A1FER-15 | 2026-09-03 12:48:22 | 45.60556 | 15.01212 | 335° | 11km/h | 23623m | 4.5m/s | 0°C | 0% | 0hPa | 0V | 00:00:00 | 00:00:00 | 00:00:00 | |
| 9A1FER-3 | 2026-09-03 12:48:20 | 45.60548 | 15.01219 | 332° | 13km/h | 23613m | 4.3m/s | 0°C | 0% | 0hPa | 0V | 00:00:00 | 00:00:00 | 00:00:00 | |
| 9A1FER-10 | 2026-09-03 12:48:11 | 45.60527 | 15.01221 | 143° | 11km/h | 23563m | 5.2m/s | 0°C | 0% | 0hPa | 0V | 00:00:00 | 00:00:00 | 00:00:00 | |
| PETON7-10 | 2026-09-03 12:48:09 | 45.60525 | 15.01222 | 331° | 13km/h | 23553m | 8.2m/s | 0°C | 0% | 0hPa | 0V | 00:00:00 | 00:00:00 | 00:00:00 | |
| 9A1FER-15 | 2026-09-03 12:48:07 | 45.60517 | 15.01228 | 324° | 11km/h | 23542m | 3.8m/s | 0°C | 0% | 0hPa | 0V | 00:00:00 | 00:00:00 | 00:00:00 | |
| 9A1FER-3 | 2026-09-03 12:48:05 | 45.60510 | 15.01238 | 291° | 9km/h | 23534m | 5.7m/s | 0°C | 0% | 0hPa | 0V | 00:00:00 | 00:00:00 | 00:00:00 | |
| 9A1FER-10 | 2026-09-03 12:47:55 | 45.60500 | 15.01262 | 304° | 11km/h | 23483m | 4.4m/s | 0°C | 0% | 0hPa | 0V | 00:00:00 | 00:00:00 | 00:00:00 | |
| PETON7-10 | 2026-09-03 12:47:53 | 45.60498 | 15.01271 | 239° | 11km/h | 23472m | 6.0m/s | 0°C | 0% | 0hPa | 0V | 00:00:00 | 00:00:00 | 00:00:00 | |
| 9A1FER-3 | 2026-09-03 12:47:50 | 45.60500 | 15.01269 | 123° | 11km/h | 23456m | 5.0m/s | 0°C | 0% | 0hPa | 0V | 00:00:00 | 00:00:00 | 00:00:00 | |
| 9A1FER-10 | 2026-09-03 12:47:40 | 45.60506 | 15.01296 | 101° | 11km/h | 23401m | 6.2m/s | 0°C | 0% | 0hPa | 0V | 00:00:00 | 00:00:00 | 00:00:00 | |
| PETON7-10 | 2026-09-03 12:47:38 | 45.60506 | 15.01292 | 138° | 9km/h | 23392m | 6.4m/s | 0°C | 0% | 0hPa | 0V | 00:00:00 | 00:00:00 | 00:00:00 | |
| 9A1FER-15 | 2026-09-03 12:47:37 | 45.60507 | 15.01293 | 255° | 11km/h | 23387m | 5.2m/s | 0°C | 0% | 0hPa | 0V | 00:00:00 | 00:00:00 | 00:00:00 | |
| 9A1FER-3 | 2026-09-03 12:47:36 | 45.60508 | 15.01304 | 268° | 9km/h | 23376m | 7.0m/s | 0°C | 0% | 0hPa | 0V | 00:00:00 | 00:00:00 | 00:00:00 | |
| 9A1FER-10 | 2026-09-03 12:47:25 | 45.60520 | 15.01314 | 288° | 13km/h | 23325m | 4.5m/s | 0°C | 0% | 0hPa | 0V | 00:00:00 | 00:00:00 | 00:00:00 | |
| 9A1FER-15 | 2026-09-03 12:47:22 | 45.60519 | 15.01319 | 164° | 13km/h | 23309m | 6.9m/s | 0°C | 0% | 0hPa | 0V | 00:00:00 | 00:00:00 | 00:00:00 | |
| 9A1FER-3 | 2026-09-03 12:47:20 | 45.60524 | 15.01315 | 146° | 13km/h | 23299m | 3.2m/s | 0°C | 0% | 0hPa | 0V | 00:00:00 | 00:00:00 | 00:00:00 | |
| 9A1FER-10 | 2026-09-03 12:47:10 | 45.60516 | 15.01311 | 81° | 13km/h | 23245m | 5.2m/s | 0°C | 0% | 0hPa | 0V | 00:00:00 | 00:00:00 | 00:00:00 | |
| PETON7-10 | 2026-09-03 12:47:09 | 45.60514 | 15.01308 | 47° | 13km/h | 23240m | 4.8m/s | 0°C | 0% | 0hPa | 0V | 00:00:00 | 00:00:00 | 00:00:00 | |
| 9A1FER-15 | 2026-09-03 12:47:07 | 45.60511 | 15.01303 | 34° | 15km/h | 23230m | 4.8m/s | 0°C | 0% | 0hPa | 0V | 00:00:00 | 00:00:00 | 00:00:00 | |
| 9A1FER-3 | 2026-09-03 12:47:05 | 45.60506 | 15.01302 | 360° | 16km/h | 23219m | 8.1m/s | 0°C | 0% | 0hPa | 0V | 00:00:00 | 00:00:00 | 00:00:00 | |
| 9A1FER-10 | 2026-09-03 12:46:55 | 45.60475 | 15.01321 | 337° | 24km/h | 23164m | 5.2m/s | 0°C | 0% | 0hPa | 0V | 00:00:00 | 00:00:00 | 00:00:00 | |
| PETON7-10 | 2026-09-03 12:46:54 | 45.60470 | 15.01323 | 346° | 22km/h | 23158m | 7.5m/s | 0°C | 0% | 0hPa | 0V | 00:00:00 | 00:00:00 | 00:00:00 | |
| 9A1FER-15 | 2026-09-03 12:46:52 | 45.60457 | 15.01330 | 334° | 22km/h | 23145m | 6.8m/s | 0°C | 0% | 0hPa | 0V | 00:00:00 | 00:00:00 | 00:00:00 | |
| 9A1FER-3 | 2026-09-03 12:46:50 | 45.60449 | 15.01339 | 313° | 22km/h | 23135m | 4.4m/s | 0°C | 0% | 0hPa | 0V | 00:00:00 | 00:00:00 | 00:00:00 | |
| 9A1FER-10 | 2026-09-03 12:46:40 | 45.60397 | 15.01380 | 324° | 27km/h | 23086m | 6.6m/s | 0°C | 0% | 0hPa | 0V | 00:00:00 | 00:00:00 | 00:00:00 | |
| PETON7-10 | 2026-09-03 12:46:38 | 45.60392 | 15.01390 | 303° | 27km/h | 23076m | 5.0m/s | 0°C | 0% | 0hPa | 0V | 00:00:00 | 00:00:00 | 00:00:00 | |
| 9A1FER-15 | 2026-09-03 12:46:37 | 45.60390 | 15.01395 | 315° | 29km/h | 23070m | 6.3m/s | 0°C | 0% | 0hPa | 0V | 00:00:00 | 00:00:00 | 00:00:00 | |
| 9A1FER-3 | 2026-09-03 12:46:35 | 45.60379 | 15.01402 | 342° | 31km/h | 23061m | 5.5m/s | 0°C | 0% | 0hPa | 0V | 00:00:00 | 00:00:00 | 00:00:00 | |
| 9A1FER-10 | 2026-09-03 12:46:25 | 45.60318 | 15.01464 | 331° | 29km/h | 23005m | 5.1m/s | 0°C | 0% | 0hPa | 0V | 00:00:00 | 00:00:00 | 00:00:00 | |
| 9A1FER-15 | 2026-09-03 12:46:22 | 45.60299 | 15.01481 | 323° | 29km/h | 22988m | 5.4m/s | 0°C | 0% | 0hPa | 0V | 00:00:00 | 00:00:00 | 00:00:00 | |
| 9A1FER-3 | 2026-09-03 12:46:20 | 45.60287 | 15.01495 | 326° | 31km/h | 22978m | 6.0m/s | 0°C | 0% | 0hPa | 0V | 00:00:00 | 00:00:00 | 00:00:00 | |
| PETON7-10 | 2026-09-03 12:46:19 | 45.60280 | 15.01501 | 327° | 31km/h | 22973m | 3.6m/s | 0°C | 0% | 0hPa | 0V | 00:00:00 | 00:00:00 | 00:00:00 | |
| 9A1FER-10 | 2026-09-03 12:46:10 | 45.60242 | 15.01577 | 306° | 27km/h | 22929m | 4.0m/s | 0°C | 0% | 0hPa | 0V | 00:00:00 | 00:00:00 | 00:00:00 | |
| 9A1FER-15 | 2026-09-03 12:46:07 | 45.60225 | 15.01601 | 319° | 27km/h | 22914m | 3.1m/s | 0°C | 0% | 0hPa | 0V | 00:00:00 | 00:00:00 | 00:00:00 | |
| 9A1FER-3 | 2026-09-03 12:46:05 | 45.60217 | 15.01620 | 283° | 26km/h | 22902m | 6.5m/s | 0°C | 0% | 0hPa | 0V | 00:00:00 | 00:00:00 | 00:00:00 | |
| PETON7-10 | 2026-09-03 12:46:00 | 45.60203 | 15.01669 | 309° | 18km/h | 22875m | 5.4m/s | 0°C | 0% | 0hPa | 0V | 00:00:00 | 00:00:00 | 00:00:00 | |
| 9A1FER-10 | 2026-09-03 12:45:55 | 45.60187 | 15.01703 | 278° | 20km/h | 22848m | 6.7m/s | 0°C | 0% | 0hPa | 0V | 00:00:00 | 00:00:00 | 00:00:00 | |
| 9A1FER-15 | 2026-09-03 12:45:52 | 45.60186 | 15.01729 | 286° | 18km/h | 22831m | 4.4m/s | 0°C | 0% | 0hPa | 0V | 00:00:00 | 00:00:00 | 00:00:00 | |
| 9A1FER-3 | 2026-09-03 12:45:50 | 45.60184 | 15.01744 | 268° | 16km/h | 22820m | 6.2m/s | 0°C | 0% | 0hPa | 0V | 00:00:00 | 00:00:00 | 00:00:00 | |
| 9A1FER-10 | 2026-09-03 12:45:40 | 45.60180 | 15.01808 | 269° | 15km/h | 22768m | 6.0m/s | 0°C | 0% | 0hPa | 0V | 00:00:00 | 00:00:00 | 00:00:00 | |
| 9A1FER-15 | 2026-09-03 12:45:37 | 45.60180 | 15.01824 | 291° | 13km/h | 22750m | 7.1m/s | 0°C | 0% | 0hPa | 0V | 00:00:00 | 00:00:00 | 00:00:00 | |
| 9A1FER-3 | 2026-09-03 12:45:33 | 45.60174 | 15.01842 | 237° | 13km/h | 22728m | 3.4m/s | 0°C | 0% | 0hPa | 0V | 00:00:00 | 00:00:00 | 00:00:00 | |
| 9A1FER-10 | 2026-09-03 12:45:25 | 45.60174 | 15.01880 | 307° | 11km/h | 22685m | 5.4m/s | 0°C | 0% | 0hPa | 0V | 00:00:00 | 00:00:00 | 00:00:00 | |
| 9A1FER-15 | 2026-09-03 12:45:22 | 45.60173 | 15.01886 | 236° | 11km/h | 22670m | 5.1m/s | 0°C | 0% | 0hPa | 0V | 00:00:00 | 00:00:00 | 00:00:00 | |
| 9A1FER-3 | 2026-09-03 12:45:18 | 45.60174 | 15.01899 | 276° | 9km/h | 22649m | 6.5m/s | 0°C | 0% | 0hPa | 0V | 00:00:00 | 00:00:00 | 00:00:00 | |
| 9A1FER-10 | 2026-09-03 12:45:10 | 45.60173 | 15.01931 | 225° | 7km/h | 22602m | 5.9m/s | 0°C | 0% | 0hPa | 0V | 00:00:00 | 00:00:00 | 00:00:00 | |
| 9A1FER-15 | 2026-09-03 12:45:07 | 45.60176 | 15.01937 | 263° | 7km/h | 22588m | 7.0m/s | 0°C | 0% | 0hPa | 0V | 00:00:00 | 00:00:00 | 00:00:00 | |
| 9A1FER-3 | 2026-09-03 12:45:02 | 45.60172 | 15.01951 | 263° | 7km/h | 22558m | 7.1m/s | 0°C | 0% | 0hPa | 0V | 00:00:00 | 00:00:00 | 00:00:00 | |
| PETON7-10 | 2026-09-03 12:44:57 | 45.60177 | 15.01953 | 242° | 9km/h | 22531m | 7.1m/s | 0°C | 0% | 0hPa | 0V | 00:00:00 | 00:00:00 | 00:00:00 | |
| 9A1FER-10 | 2026-09-03 12:44:55 | 45.60177 | 15.01958 | 304° | 9km/h | 22522m | 6.5m/s | 0°C | 0% | 0hPa | 0V | 00:00:00 | 00:00:00 | 00:00:00 | |
| 9A1FER-15 | 2026-09-03 12:44:52 | 45.60172 | 15.01959 | 266° | 9km/h | 22506m | 6.5m/s | 0°C | 0% | 0hPa | 0V | 00:00:00 | 00:00:00 | 00:00:00 | |
| 9A1FER-3 | 2026-09-03 12:44:47 | 45.60185 | 15.01960 | 201° | 9km/h | 22477m | 7.0m/s | 0°C | 0% | 0hPa | 0V | 00:00:00 | 00:00:00 | 00:00:00 | |
| PETON7-10 | 2026-09-03 12:44:40 | 45.60189 | 15.01978 | 223° | 5km/h | 22438m | 6.4m/s | 0°C | 0% | 0hPa | 0V | 00:00:00 | 00:00:00 | 00:00:00 | |
| 9A1FER-15 | 2026-09-03 12:44:37 | 45.60194 | 15.01978 | 198° | 7km/h | 22418m | 7.4m/s | 0°C | 0% | 0hPa | 0V | 00:00:00 | 00:00:00 | 00:00:00 | |
| 9A1FER-3 | 2026-09-03 12:44:32 | 45.60204 | 15.01983 | 198° | 9km/h | 22389m | 4.6m/s | 0°C | 0% | 0hPa | 0V | 00:00:00 | 00:00:00 | 00:00:00 | |
| 9A1FER-10 | 2026-09-03 12:44:25 | 45.60206 | 15.01990 | 249° | 11km/h | 22355m | 5.0m/s | 0°C | 0% | 0hPa | 0V | 00:00:00 | 00:00:00 | 00:00:00 | |
| 9A1FER-15 | 2026-09-03 12:44:22 | 45.60208 | 15.01998 | 275° | 13km/h | 22337m | 4.2m/s | 0°C | 0% | 0hPa | 0V | 00:00:00 | 00:00:00 | 00:00:00 | |
| PETON7-10 | 2026-09-03 12:44:21 | 45.60208 | 15.02001 | 276° | 13km/h | 22336m | 7.6m/s | 0°C | 0% | 0hPa | 0V | 00:00:00 | 00:00:00 | 00:00:00 | |
| 9A1FER-3 | 2026-09-03 12:44:17 | 45.60204 | 15.02019 | 296° | 13km/h | 22312m | 4.5m/s | 0°C | 0% | 0hPa | 0V | 00:00:00 | 00:00:00 | 00:00:00 | |
| 9A1FER-10 | 2026-09-03 12:44:10 | 45.60208 | 15.02046 | 233° | 13km/h | 22271m | 4.8m/s | 0°C | 0% | 0hPa | 0V | 00:00:00 | 00:00:00 | 00:00:00 | |
| 9A1FER-15 | 2026-09-03 12:44:07 | 45.60214 | 15.02057 | 253° | 13km/h | 22255m | 5.2m/s | 0°C | 0% | 0hPa | 0V | 00:00:00 | 00:00:00 | 00:00:00 | |
| PETON7-10 | 2026-09-03 12:44:05 | 45.60215 | 15.02068 | 266° | 13km/h | 22244m | 4.1m/s | 0°C | 0% | 0hPa | 0V | 00:00:00 | 00:00:00 | 00:00:00 | |
| 9A1FER-3 | 2026-09-03 12:44:02 | 45.60215 | 15.02080 | 264° | 15km/h | 22226m | 7.7m/s | 0°C | 0% | 0hPa | 0V | 00:00:00 | 00:00:00 | 00:00:00 | |
| 9A1FER-10 | 2026-09-03 12:43:55 | 45.60230 | 15.02104 | 239° | 16km/h | 22189m | 5.9m/s | 0°C | 0% | 0hPa | 0V | 00:00:00 | 00:00:00 | 00:00:00 | |
| 9A1FER-15 | 2026-09-03 12:43:52 | 45.60239 | 15.02114 | 225° | 18km/h | 22170m | 7.5m/s | 0°C | 0% | 0hPa | 0V | 00:00:00 | 00:00:00 | 00:00:00 | |
| PETON7-10 | 2026-09-03 12:43:49 | 45.60248 | 15.02126 | 214° | 16km/h | 22154m | 6.9m/s | 0°C | 0% | 0hPa | 0V | 00:00:00 | 00:00:00 | 00:00:00 | |
| 9A1FER-3 | 2026-09-03 12:43:47 | 45.60258 | 15.02129 | 188° | 16km/h | 22143m | 6.0m/s | 0°C | 0% | 0hPa | 0V | 00:00:00 | 00:00:00 | 00:00:00 | |
| 9A1FER-10 | 2026-09-03 12:43:40 | 45.60283 | 15.02145 | 198° | 15km/h | 22103m | 4.6m/s | 0°C | 0% | 0hPa | 0V | 00:00:00 | 00:00:00 | 00:00:00 | |
| 9A1FER-15 | 2026-09-03 12:43:37 | 45.60297 | 15.02146 | 195° | 13km/h | 22087m | 7.9m/s | 0°C | 0% | 0hPa | 0V | 00:00:00 | 00:00:00 | 00:00:00 | |
| PETON7-10 | 2026-09-03 12:43:34 | 45.60307 | 15.02150 | 178° | 13km/h | 22071m | 7.1m/s | 0°C | 0% | 0hPa | 0V | 00:00:00 | 00:00:00 | 00:00:00 | |
| 9A1FER-3 | 2026-09-03 12:43:32 | 45.60314 | 15.02147 | 165° | 11km/h | 22061m | 4.8m/s | 0°C | 0% | 0hPa | 0V | 00:00:00 | 00:00:00 | 00:00:00 | |
| 9A1FER-10 | 2026-09-03 12:43:25 | 45.60333 | 15.02152 | 226° | 16km/h | 22018m | 5.3m/s | 0°C | 0% | 0hPa | 0V | 00:00:00 | 00:00:00 | 00:00:00 | |
| 9A1FER-15 | 2026-09-03 12:43:22 | 45.60340 | 15.02151 | 169° | 16km/h | 22002m | 3.5m/s | 0°C | 0% | 0hPa | 0V | 00:00:00 | 00:00:00 | 00:00:00 | |
| PETON7-10 | 2026-09-03 12:43:18 | 45.60351 | 15.02148 | 152° | 18km/h | 21980m | 3.6m/s | 0°C | 0% | 0hPa | 0V | 00:00:00 | 00:00:00 | 00:00:00 | |
| 9A1FER-3 | 2026-09-03 12:43:17 | 45.60353 | 15.02147 | 181° | 16km/h | 21974m | 7.8m/s | 0°C | 0% | 0hPa | 0V | 00:00:00 | 00:00:00 | 00:00:00 | |
| 9A1FER-10 | 2026-09-03 12:43:09 | 45.60391 | 15.02145 | 161° | 15km/h | 21932m | 6.7m/s | 0°C | 0% | 0hPa | 0V | 00:00:00 | 00:00:00 | 00:00:00 | |
| 9A1FER-15 | 2026-09-03 12:43:07 | 45.60397 | 15.02138 | 137° | 15km/h | 21923m | 4.5m/s | 0°C | 0% | 0hPa | 0V | 00:00:00 | 00:00:00 | 00:00:00 | |
| 9A1FER-3 | 2026-09-03 12:43:02 | 45.60415 | 15.02139 | 172° | 15km/h | 21896m | 2.9m/s | 0°C | 0% | 0hPa | 0V | 00:00:00 | 00:00:00 | 00:00:00 | |
| PETON7-10 | 2026-09-03 12:43:00 | 45.60425 | 15.02138 | 182° | 13km/h | 21885m | 6.1m/s | 0°C | 0% | 0hPa | 0V | 00:00:00 | 00:00:00 | 00:00:00 | |
| 9A1FER-10 | 2026-09-03 12:42:54 | 45.60439 | 15.02136 | 251° | 13km/h | 21855m | 5.1m/s | 0°C | 0% | 0hPa | 0V | 00:00:00 | 00:00:00 | 00:00:00 | |
| 9A1FER-15 | 2026-09-03 12:42:52 | 45.60443 | 15.02142 | 186° | 15km/h | 21844m | 5.6m/s | 0°C | 0% | 0hPa | 0V | 00:00:00 | 00:00:00 | 00:00:00 | |
| 9A1FER-3 | 2026-09-03 12:42:47 | 45.60460 | 15.02136 | 130° | 18km/h | 21816m | 5.4m/s | 0°C | 0% | 0hPa | 0V | 00:00:00 | 00:00:00 | 00:00:00 | |
| PETON7-10 | 2026-09-03 12:42:44 | 45.60467 | 15.02130 | 208° | 22km/h | 21801m | 6.1m/s | 0°C | 0% | 0hPa | 0V | 00:00:00 | 00:00:00 | 00:00:00 | |
| 9A1FER-10 | 2026-09-03 12:42:39 | 45.60482 | 15.02139 | 169° | 22km/h | 21773m | 6.6m/s | 0°C | 0% | 0hPa | 0V | 00:00:00 | 00:00:00 | 00:00:00 | |
| 9A1FER-15 | 2026-09-03 12:42:37 | 45.60492 | 15.02134 | 153° | 24km/h | 21762m | 6.5m/s | 0°C | 0% | 0hPa | 0V | 00:00:00 | 00:00:00 | 00:00:00 | |
| 9A1FER-10 | 2026-09-03 12:42:24 | 45.60555 | 15.02083 | 142° | 26km/h | 21690m | 5.5m/s | 0°C | 0% | 0hPa | 0V | 00:00:00 | 00:00:00 | 00:00:00 | |
| 9A1FER-15 | 2026-09-03 12:42:22 | 45.60567 | 15.02076 | 162° | 24km/h | 21680m | 5.8m/s | 0°C | 0% | 0hPa | 0V | 00:00:00 | 00:00:00 | 00:00:00 | |
| PETON7-10 | 2026-09-03 12:42:17 | 45.60585 | 15.02057 | 143° | 29km/h | 21651m | 3.8m/s | 0°C | 0% | 0hPa | 0V | 00:00:00 | 00:00:00 | 00:00:00 | |
| 9A1FER-3 | 2026-09-03 12:42:16 | 45.60591 | 15.02049 | 133° | 26km/h | 21646m | 7.4m/s | 0°C | 0% | 0hPa | 0V | 00:00:00 | 00:00:00 | 00:00:00 | |
| 9A1FER-10 | 2026-09-03 12:42:09 | 45.60624 | 15.02003 | 111° | 26km/h | 21608m | 5.2m/s | 0°C | 0% | 0hPa | 0V | 00:00:00 | 00:00:00 | 00:00:00 | |
| 9A1FER-15 | 2026-09-03 12:42:07 | 45.60627 | 15.01992 | 129° | 26km/h | 21598m | 6.0m/s | 0°C | 0% | 0hPa | 0V | 00:00:00 | 00:00:00 | 00:00:00 | |
| 9A1FER-3 | 2026-09-03 12:42:01 | 45.60660 | 15.01936 | 141° | 22km/h | 21567m | 6.3m/s | 0°C | 0% | 0hPa | 0V | 00:00:00 | 00:00:00 | 00:00:00 | |
| 9A1FER-10 | 2026-09-03 12:41:54 | 45.60678 | 15.01893 | 118° | 27km/h | 21524m | 7.1m/s | 0°C | 0% | 0hPa | 0V | 00:00:00 | 00:00:00 | 00:00:00 | |
| 9A1FER-15 | 2026-09-03 12:41:52 | 45.60687 | 15.01871 | 122° | 24km/h | 21513m | 5.5m/s | 0°C | 0% | 0hPa | 0V | 00:00:00 | 00:00:00 | 00:00:00 | |
| 9A1FER-3 | 2026-09-03 12:41:45 | 45.60708 | 15.01823 | 122° | 22km/h | 21476m | 6.1m/s | 0°C | 0% | 0hPa | 0V | 00:00:00 | 00:00:00 | 00:00:00 | |
| 9A1FER-10 | 2026-09-03 12:41:39 | 45.60724 | 15.01771 | 108° | 16km/h | 21441m | 6.0m/s | 0°C | 0% | 0hPa | 0V | 00:00:00 | 00:00:00 | 00:00:00 | |
| 9A1FER-15 | 2026-09-03 12:41:37 | 45.60725 | 15.01760 | 106° | 18km/h | 21431m | 5.6m/s | 0°C | 0% | 0hPa | 0V | 00:00:00 | 00:00:00 | 00:00:00 | |
| 9A1FER-3 | 2026-09-03 12:41:30 | 45.60745 | 15.01718 | 129° | 20km/h | 21389m | 7.1m/s | 0°C | 0% | 0hPa | 0V | 00:00:00 | 00:00:00 | 00:00:00 | |
| 9A1FER-10 | 2026-09-03 12:41:24 | 45.60755 | 15.01695 | 115° | 22km/h | 21357m | 5.3m/s | 0°C | 0% | 0hPa | 0V | 00:00:00 | 00:00:00 | 00:00:00 | |
| 9A1FER-15 | 2026-09-03 12:41:22 | 45.60761 | 15.01678 | 131° | 20km/h | 21346m | 4.3m/s | 0°C | 0% | 0hPa | 0V | 00:00:00 | 00:00:00 | 00:00:00 | |
| 9A1FER-3 | 2026-09-03 12:41:15 | 45.60776 | 15.01642 | 115° | 20km/h | 21311m | 6.9m/s | 0°C | 0% | 0hPa | 0V | 00:00:00 | 00:00:00 | 00:00:00 | |
| 9A1FER-10 | 2026-09-03 12:41:09 | 45.60795 | 15.01597 | 123° | 16km/h | 21278m | 7.4m/s | 0°C | 0% | 0hPa | 0V | 00:00:00 | 00:00:00 | 00:00:00 | |
| 9A1FER-15 | 2026-09-03 12:41:07 | 45.60796 | 15.01589 | 76° | 16km/h | 21267m | 5.5m/s | 0°C | 0% | 0hPa | 0V | 00:00:00 | 00:00:00 | 00:00:00 | |
| PETON7-10 | 2026-09-03 12:41:05 | 45.60796 | 15.01583 | 121° | 15km/h | 21256m | 4.0m/s | 0°C | 0% | 0hPa | 0V | 00:00:00 | 00:00:00 | 00:00:00 | |
| 9A1FER-10 | 2026-09-03 12:40:54 | 45.60822 | 15.01523 | 112° | 22km/h | 21197m | 6.7m/s | 0°C | 0% | 0hPa | 0V | 00:00:00 | 00:00:00 | 00:00:00 | |
| 9A1FER-15 | 2026-09-03 12:40:52 | 45.60824 | 15.01510 | 107° | 22km/h | 21184m | 4.8m/s | 0°C | 0% | 0hPa | 0V | 00:00:00 | 00:00:00 | 00:00:00 | |
| 9A1FER-10 | 2026-09-03 12:40:39 | 45.60853 | 15.01417 | 137° | 16km/h | 21113m | 3.3m/s | 0°C | 0% | 0hPa | 0V | 00:00:00 | 00:00:00 | 00:00:00 | |
| 9A1FER-3 | 2026-09-03 12:40:38 | 45.60855 | 15.01413 | 107° | 16km/h | 21109m | 6.6m/s | 0°C | 0% | 0hPa | 0V | 00:00:00 | 00:00:00 | 00:00:00 | |
| 9A1FER-15 | 2026-09-03 12:40:36 | 45.60855 | 15.01404 | 85° | 18km/h | 21097m | 5.3m/s | 0°C | 0% | 0hPa | 0V | 00:00:00 | 00:00:00 | 00:00:00 | |
| 9A1FER-10 | 2026-09-03 12:40:24 | 45.60888 | 15.01348 | 100° | 13km/h | 21032m | 3.1m/s | 0°C | 0% | 0hPa | 0V | 00:00:00 | 00:00:00 | 00:00:00 | |
| 9A1FER-3 | 2026-09-03 12:40:23 | 45.60888 | 15.01343 | 100° | 13km/h | 21027m | 7.2m/s | 0°C | 0% | 0hPa | 0V | 00:00:00 | 00:00:00 | 00:00:00 | |
| 9A1FER-15 | 2026-09-03 12:40:21 | 45.60891 | 15.01332 | 113° | 13km/h | 21016m | 6.1m/s | 0°C | 0% | 0hPa | 0V | 00:00:00 | 00:00:00 | 00:00:00 | |
| 9A1FER-10 | 2026-09-03 12:40:09 | 45.60917 | 15.01299 | 202° | 11km/h | 20950m | 4.6m/s | 0°C | 0% | 0hPa | 0V | 00:00:00 | 00:00:00 | 00:00:00 | |
| 9A1FER-3 | 2026-09-03 12:40:08 | 45.60920 | 15.01301 | 200° | 9km/h | 20945m | 6.4m/s | 0°C | 0% | 0hPa | 0V | 00:00:00 | 00:00:00 | 00:00:00 | |
| 9A1FER-15 | 2026-09-03 12:40:05 | 45.60924 | 15.01298 | 126° | 11km/h | 20928m | 5.7m/s | 0°C | 0% | 0hPa | 0V | 00:00:00 | 00:00:00 | 00:00:00 | |
| 9A1FER-10 | 2026-09-03 12:39:54 | 45.60948 | 15.01271 | 137° | 11km/h | 20868m | 5.3m/s | 0°C | 0% | 0hPa | 0V | 00:00:00 | 00:00:00 | 00:00:00 | |
| 9A1FER-3 | 2026-09-03 12:39:53 | 45.60950 | 15.01268 | 113° | 13km/h | 20861m | 6.7m/s | 0°C | 0% | 0hPa | 0V | 00:00:00 | 00:00:00 | 00:00:00 | |
| 9A1FER-15 | 2026-09-03 12:39:50 | 45.60956 | 15.01256 | 150° | 11km/h | 20844m | 4.0m/s | 0°C | 0% | 0hPa | 0V | 00:00:00 | 00:00:00 | 00:00:00 | |
| 9A1FER-10 | 2026-09-03 12:39:39 | 45.60972 | 15.01224 | 100° | 13km/h | 20783m | 5.3m/s | 0°C | 0% | 0hPa | 0V | 00:00:00 | 00:00:00 | 00:00:00 | |
| 9A1FER-3 | 2026-09-03 12:39:38 | 45.60973 | 15.01222 | 137° | 13km/h | 20779m | 3.7m/s | 0°C | 0% | 0hPa | 0V | 00:00:00 | 00:00:00 | 00:00:00 | |
| 9A1FER-15 | 2026-09-03 12:39:35 | 45.60981 | 15.01212 | 125° | 15km/h | 20763m | 6.5m/s | 0°C | 0% | 0hPa | 0V | 00:00:00 | 00:00:00 | 00:00:00 | |
| 9A1FER-10 | 2026-09-03 12:39:24 | 45.60990 | 15.01160 | 106° | 15km/h | 20702m | 5.7m/s | 0°C | 0% | 0hPa | 0V | 00:00:00 | 00:00:00 | 00:00:00 | |
| 9A1FER-10 | 2026-09-03 12:39:09 | 45.60997 | 15.01084 | 63° | 16km/h | 20617m | 5.9m/s | 0°C | 0% | 0hPa | 0V | 00:00:00 | 00:00:00 | 00:00:00 | |
| 9A1FER-15 | 2026-09-03 12:39:08 | 45.60995 | 15.01079 | 52° | 15km/h | 20611m | 5.2m/s | 0°C | 0% | 0hPa | 0V | 00:00:00 | 00:00:00 | 00:00:00 | |
| 9A1FER-10 | 2026-09-03 12:38:54 | 45.60967 | 15.01024 | 44° | 11km/h | 20538m | 4.6m/s | 0°C | 0% | 0hPa | 0V | 00:00:00 | 00:00:00 | 00:00:00 | |
| 9A1FER-15 | 2026-09-03 12:38:52 | 45.60959 | 15.01014 | 46° | 11km/h | 20522m | 7.5m/s | 0°C | 0% | 0hPa | 0V | 00:00:00 | 00:00:00 | 00:00:00 | |
| 9A1FER-10 | 2026-09-03 12:38:39 | 45.60939 | 15.01002 | 281° | 7km/h | 20458m | 4.8m/s | 0°C | 0% | 0hPa | 0V | 00:00:00 | 00:00:00 | 00:00:00 | |
| 9A1FER-10 | 2026-09-03 12:38:24 | 45.60920 | 15.00993 | 11° | 9km/h | 20376m | 3.6m/s | 0°C | 0% | 0hPa | 0V | 00:00:00 | 00:00:00 | 00:00:00 | |
| 9A1FER-15 | 2026-09-03 12:38:21 | 45.60916 | 15.00990 | 182° | 9km/h | 20359m | 6.6m/s | 0°C | 0% | 0hPa | 0V | 00:00:00 | 00:00:00 | 00:00:00 | |
| 9A1FER-3 | 2026-09-03 12:38:15 | 45.60923 | 15.00999 | 341° | 7km/h | 20330m | 5.5m/s | 0°C | 0% | 0hPa | 0V | 00:00:00 | 00:00:00 | 00:00:00 | |
| 9A1FER-10 | 2026-09-03 12:38:09 | 45.60911 | 15.01002 | 286° | 9km/h | 20297m | 4.8m/s | 0°C | 0% | 0hPa | 0V | 00:00:00 | 00:00:00 | 00:00:00 | |
| 9A1FER-15 | 2026-09-03 12:38:06 | 45.60912 | 15.01010 | 239° | 7km/h | 20283m | 4.1m/s | 0°C | 0% | 0hPa | 0V | 00:00:00 | 00:00:00 | 00:00:00 | |
| 9A1FER-3 | 2026-09-03 12:37:58 | 45.60902 | 15.01024 | 232° | 13km/h | 20241m | 5.7m/s | 0°C | 0% | 0hPa | 0V | 00:00:00 | 00:00:00 | 00:00:00 | |
| 9A1FER-10 | 2026-09-03 12:37:54 | 45.60910 | 15.01033 | 214° | 9km/h | 20223m | 5.1m/s | 0°C | 0% | 0hPa | 0V | 00:00:00 | 00:00:00 | 00:00:00 | |
| 9A1FER-15 | 2026-09-03 12:37:50 | 45.60912 | 15.01028 | 191° | 11km/h | 20203m | 4.3m/s | 0°C | 0% | 0hPa | 0V | 00:00:00 | 00:00:00 | 00:00:00 | |
| 9A1FER-10 | 2026-09-03 12:37:39 | 45.60928 | 15.01058 | 229° | 16km/h | 20147m | 5.0m/s | 0°C | 0% | 0hPa | 0V | 00:00:00 | 00:00:00 | 00:00:00 | |
| 9A1FER-15 | 2026-09-03 12:37:35 | 45.60936 | 15.01077 | 224° | 15km/h | 20126m | 6.0m/s | 0°C | 0% | 0hPa | 0V | 00:00:00 | 00:00:00 | 00:00:00 | |
| 9A1FER-10 | 2026-09-03 12:37:24 | 45.60979 | 15.01078 | 167° | 16km/h | 20070m | 3.7m/s | 0°C | 0% | 0hPa | 0V | 00:00:00 | 00:00:00 | 00:00:00 | |
| 9A1FER-15 | 2026-09-03 12:37:17 | 45.61000 | 15.01073 | 211° | 18km/h | 20036m | 5.8m/s | 0°C | 0% | 0hPa | 0V | 00:00:00 | 00:00:00 | 00:00:00 | |
| 9A1FER-10 | 2026-09-03 12:37:09 | 45.61025 | 15.01054 | 156° | 16km/h | 19992m | 5.0m/s | 0°C | 0% | 0hPa | 0V | 00:00:00 | 00:00:00 | 00:00:00 | |
| 9A1FER-15 | 2026-09-03 12:37:02 | 45.61054 | 15.01047 | 123° | 18km/h | 19956m | 5.7m/s | 0°C | 0% | 0hPa | 0V | 00:00:00 | 00:00:00 | 00:00:00 | |
| 9A1FER-10 | 2026-09-03 12:36:54 | 45.61077 | 15.01022 | 147° | 18km/h | 19917m | 4.4m/s | 0°C | 0% | 0hPa | 0V | 00:00:00 | 00:00:00 | 00:00:00 | |
| 9A1FER-3 | 2026-09-03 12:36:46 | 45.61101 | 15.00969 | 135° | 16km/h | 19868m | 4.8m/s | 0°C | 0% | 0hPa | 0V | 00:00:00 | 00:00:00 | 00:00:00 | |
| 9A1FER-15 | 2026-09-03 12:36:45 | 45.61101 | 15.00969 | 135° | 18km/h | 19868m | 4.8m/s | 0°C | 0% | 0hPa | 0V | 00:00:00 | 00:00:00 | 00:00:00 | |
| 9A1FER-10 | 2026-09-03 12:36:39 | 45.61116 | 15.00943 | 115° | 22km/h | 19839m | 4.3m/s | 0°C | 0% | 0hPa | 0V | 00:00:00 | 00:00:00 | 00:00:00 | |
| 9A1FER-15 | 2026-09-03 12:36:30 | 45.61149 | 15.00903 | 131° | 22km/h | 19792m | 6.3m/s | 0°C | 0% | 0hPa | 0V | 00:00:00 | 00:00:00 | 00:00:00 | |
| PETON7-10 | 2026-09-03 12:36:26 | 45.61161 | 15.00871 | 114° | 22km/h | 19769m | 5.1m/s | 0°C | 0% | 0hPa | 0V | 00:00:00 | 00:00:00 | 00:00:00 | |
| 9A1FER-10 | 2026-09-03 12:36:24 | 45.61168 | 15.00854 | 132° | 22km/h | 19758m | 4.6m/s | 0°C | 0% | 0hPa | 0V | 00:00:00 | 00:00:00 | 00:00:00 | |
| 9A1FER-15 | 2026-09-03 12:36:15 | 45.61197 | 15.00796 | 138° | 22km/h | 19715m | 4.8m/s | 0°C | 0% | 0hPa | 0V | 00:00:00 | 00:00:00 | 00:00:00 | |
| 9A1FER-10 | 2026-09-03 12:36:09 | 45.61221 | 15.00769 | 127° | 20km/h | 19682m | 4.1m/s | 0°C | 0% | 0hPa | 0V | 00:00:00 | 00:00:00 | 00:00:00 | |
| PETON7-10 | 2026-09-03 12:36:03 | 45.61237 | 15.00736 | 140° | 20km/h | 19650m | 6.5m/s | 0°C | 0% | 0hPa | 0V | 00:00:00 | 00:00:00 | 00:00:00 | |
| 9A1FER-10 | 2026-09-03 12:35:54 | 45.61265 | 15.00685 | 133° | 22km/h | 19604m | 7.0m/s | 0°C | 0% | 0hPa | 0V | 00:00:00 | 00:00:00 | 00:00:00 | |
| PETON7-10 | 2026-09-03 12:35:46 | 45.61293 | 15.00641 | 112° | 22km/h | 19561m | 5.9m/s | 0°C | 0% | 0hPa | 0V | 00:00:00 | 00:00:00 | 00:00:00 | |
| 9A1FER-10 | 2026-09-03 12:35:39 | 45.61325 | 15.00614 | 124° | 24km/h | 19525m | 5.2m/s | 0°C | 0% | 0hPa | 0V | 00:00:00 | 00:00:00 | 00:00:00 | |
| 9A1FER-15 | 2026-09-03 12:35:26 | 45.61353 | 15.00520 | 97° | 24km/h | 19458m | 5.0m/s | 0°C | 0% | 0hPa | 0V | 00:00:00 | 00:00:00 | 00:00:00 | |
| 9A1FER-3 | 2026-09-03 12:35:25 | 45.61354 | 15.00512 | 96° | 22km/h | 19453m | 5.7m/s | 0°C | 0% | 0hPa | 0V | 00:00:00 | 00:00:00 | 00:00:00 | |
| 9A1FER-10 | 2026-09-03 12:35:24 | 45.61354 | 15.00502 | 103° | 22km/h | 19449m | 4.1m/s | 0°C | 0% | 0hPa | 0V | 00:00:00 | 00:00:00 | 00:00:00 | |
| 9A1FER-15 | 2026-09-03 12:35:11 | 45.61389 | 15.00417 | 131° | 13km/h | 19379m | 6.2m/s | 0°C | 0% | 0hPa | 0V | 00:00:00 | 00:00:00 | 00:00:00 | |
| 9A1FER-3 | 2026-09-03 12:35:10 | 45.61391 | 15.00413 | 142° | 20km/h | 19373m | 6.5m/s | 0°C | 0% | 0hPa | 0V | 00:00:00 | 00:00:00 | 00:00:00 | |
| 9A1FER-10 | 2026-09-03 12:35:09 | 45.61395 | 15.00409 | 153° | 16km/h | 19368m | 4.0m/s | 0°C | 0% | 0hPa | 0V | 00:00:00 | 00:00:00 | 00:00:00 | |
| 9A1FER-15 | 2026-09-03 12:34:54 | 45.61421 | 15.00332 | 81° | 16km/h | 19288m | 4.8m/s | 0°C | 0% | 0hPa | 0V | 00:00:00 | 00:00:00 | 00:00:00 | |
| 9A1FER-10 | 2026-09-03 12:34:39 | 45.61430 | 15.00255 | 72° | 11km/h | 19212m | 4.1m/s | 0°C | 0% | 0hPa | 0V | 00:00:00 | 00:00:00 | 00:00:00 | |
| 9A1FER-15 | 2026-09-03 12:34:38 | 45.61429 | 15.00252 | 71° | 11km/h | 19207m | 6.9m/s | 0°C | 0% | 0hPa | 0V | 00:00:00 | 00:00:00 | 00:00:00 | |
| 9A1FER-10 | 2026-09-03 12:34:24 | 45.61446 | 15.00206 | 154° | 15km/h | 19132m | 7.3m/s | 0°C | 0% | 0hPa | 0V | 00:00:00 | 00:00:00 | 00:00:00 | |
| 9A1FER-15 | 2026-09-03 12:34:23 | 45.61450 | 15.00203 | 143° | 15km/h | 19127m | 3.7m/s | 0°C | 0% | 0hPa | 0V | 00:00:00 | 00:00:00 | 00:00:00 | |
| 9A1FER-10 | 2026-09-03 12:34:09 | 45.61476 | 15.00145 | 110° | 15km/h | 19052m | 4.9m/s | 0°C | 0% | 0hPa | 0V | 00:00:00 | 00:00:00 | 00:00:00 | |
| 9A1FER-15 | 2026-09-03 12:33:55 | 45.61503 | 15.00093 | 147° | 11km/h | 18976m | 3.8m/s | 0°C | 0% | 0hPa | 0V | 00:00:00 | 00:00:00 | 00:00:00 | |
| 9A1FER-10 | 2026-09-03 12:33:54 | 45.61506 | 15.00092 | 160° | 13km/h | 18970m | 7.6m/s | 0°C | 0% | 0hPa | 0V | 00:00:00 | 00:00:00 | 00:00:00 | |
| 9A1FER-15 | 2026-09-03 12:33:40 | 45.61521 | 15.00033 | 84° | 16km/h | 18901m | 5.0m/s | 0°C | 0% | 0hPa | 0V | 00:00:00 | 00:00:00 | 00:00:00 | |
| 9A1FER-10 | 2026-09-03 12:33:39 | 45.61520 | 15.00027 | 73° | 16km/h | 18897m | 5.9m/s | 0°C | 0% | 0hPa | 0V | 00:00:00 | 00:00:00 | 00:00:00 | |
| 9A1FER-15 | 2026-09-03 12:33:25 | 45.61529 | 14.99948 | 111° | 18km/h | 18822m | 5.8m/s | 0°C | 0% | 0hPa | 0V | 00:00:00 | 00:00:00 | 00:00:00 | |
| 9A1FER-10 | 2026-09-03 12:33:24 | 45.61530 | 14.99944 | 108° | 18km/h | 18818m | 3.4m/s | 0°C | 0% | 0hPa | 0V | 00:00:00 | 00:00:00 | 00:00:00 | |
| 9A1FER-15 | 2026-09-03 12:33:09 | 45.61569 | 14.99857 | 121° | 27km/h | 18741m | 3.3m/s | 0°C | 0% | 0hPa | 0V | 00:00:00 | 00:00:00 | 00:00:00 | |
| 9A1FER-10 | 2026-09-03 12:32:54 | 45.61619 | 14.99738 | 130° | 27km/h | 18663m | 4.0m/s | 0°C | 0% | 0hPa | 0V | 00:00:00 | 00:00:00 | 00:00:00 | |
| 9A1FER-10 | 2026-09-03 12:32:39 | 45.61641 | 14.99601 | 82° | 31km/h | 18589m | 5.5m/s | 0°C | 0% | 0hPa | 0V | 00:00:00 | 00:00:00 | 00:00:00 | |
| 9A1FER-10 | 2026-09-03 12:32:24 | 45.61647 | 14.99434 | 110° | 26km/h | 18516m | 5.1m/s | 0°C | 0% | 0hPa | 0V | 00:00:00 | 00:00:00 | 00:00:00 | |
| 9A1FER-15 | 2026-09-03 12:32:13 | 45.61655 | 14.99330 | 97° | 24km/h | 18459m | 5.4m/s | 0°C | 0% | 0hPa | 0V | 00:00:00 | 00:00:00 | 00:00:00 | |
| 9A1FER-10 | 2026-09-03 12:32:09 | 45.61662 | 14.99295 | 115° | 24km/h | 18440m | 5.4m/s | 0°C | 0% | 0hPa | 0V | 00:00:00 | 00:00:00 | 00:00:00 | |
| 9A1FER-3 | 2026-09-03 12:32:05 | 45.61672 | 14.99256 | 103° | 24km/h | 18417m | 5.6m/s | 0°C | 0% | 0hPa | 0V | 00:00:00 | 00:00:00 | 00:00:00 | |
| 9A1FER-10 | 2026-09-03 12:31:53 | 45.61703 | 14.99175 | 114° | 26km/h | 18365m | 5.3m/s | 0°C | 0% | 0hPa | 0V | 00:00:00 | 00:00:00 | 00:00:00 | |
| 9A1FER-15 | 2026-09-03 12:31:52 | 45.61705 | 14.99169 | 120° | 24km/h | 18360m | 4.1m/s | 0°C | 0% | 0hPa | 0V | 00:00:00 | 00:00:00 | 00:00:00 | |
| 9A1FER-3 | 2026-09-03 12:31:43 | 45.61749 | 14.99103 | 139° | 31km/h | 18314m | 5.6m/s | 0°C | 0% | 0hPa | 0V | 00:00:00 | 00:00:00 | 00:00:00 | |
| 9A1FER-10 | 2026-09-03 12:31:38 | 45.61770 | 14.99068 | 144° | 33km/h | 18290m | 4.5m/s | 0°C | 0% | 0hPa | 0V | 00:00:00 | 00:00:00 | 00:00:00 | |
| 9A1FER-15 | 2026-09-03 12:31:35 | 45.61794 | 14.99030 | 121° | 33km/h | 18272m | 5.8m/s | 0°C | 0% | 0hPa | 0V | 00:00:00 | 00:00:00 | 00:00:00 | |
| 9A1FER-10 | 2026-09-03 12:31:23 | 45.61857 | 14.98946 | 146° | 38km/h | 18219m | 5.9m/s | 0°C | 0% | 0hPa | 0V | 00:00:00 | 00:00:00 | 00:00:00 | |
| 9A1FER-15 | 2026-09-03 12:31:14 | 45.61913 | 14.98854 | 137° | 37km/h | 18173m | 4.7m/s | 0°C | 0% | 0hPa | 0V | 00:00:00 | 00:00:00 | 00:00:00 | |
| 9A1FER-10 | 2026-09-03 12:31:08 | 45.61956 | 14.98789 | 124° | 42km/h | 18147m | 4.7m/s | 0°C | 0% | 0hPa | 0V | 00:00:00 | 00:00:00 | 00:00:00 | |
| 9A1FER-10 | 2026-09-03 12:30:53 | 45.62028 | 14.98590 | 119° | 29km/h | 18071m | 4.3m/s | 0°C | 0% | 0hPa | 0V | 00:00:00 | 00:00:00 | 00:00:00 | |
| 9A1FER-10 | 2026-09-03 12:30:38 | 45.62072 | 14.98449 | 113° | 22km/h | 17994m | 5.0m/s | 0°C | 0% | 0hPa | 0V | 00:00:00 | 00:00:00 | 00:00:00 | |
| 9A1FER-10 | 2026-09-03 12:30:23 | 45.62117 | 14.98358 | 133° | 16km/h | 17918m | 6.5m/s | 0°C | 0% | 0hPa | 0V | 00:00:00 | 00:00:00 | 00:00:00 | |
| 9A1FER-15 | 2026-09-03 12:30:08 | 45.62167 | 14.98316 | 147° | 22km/h | 17842m | 6.8m/s | 0°C | 0% | 0hPa | 0V | 00:00:00 | 00:00:00 | 00:00:00 | |
| 9A1FER-10 | 2026-09-03 12:29:53 | 45.62221 | 14.98266 | 141° | 26km/h | 17759m | 5.3m/s | 0°C | 0% | 0hPa | 0V | 00:00:00 | 00:00:00 | 00:00:00 | |
| 9A1FER-15 | 2026-09-03 12:29:49 | 45.62240 | 14.98242 | 133° | 27km/h | 17736m | 7.8m/s | 0°C | 0% | 0hPa | 0V | 00:00:00 | 00:00:00 | 00:00:00 | |
| 9A1FER-10 | 2026-09-03 12:29:38 | 45.62286 | 14.98162 | 129° | 29km/h | 17677m | 5.9m/s | 0°C | 0% | 0hPa | 0V | 00:00:00 | 00:00:00 | 00:00:00 | |
| 9A1FER-10 | 2026-09-03 12:29:23 | 45.62360 | 14.98041 | 139° | 29km/h | 17595m | 6.4m/s | 0°C | 0% | 0hPa | 0V | 00:00:00 | 00:00:00 | 00:00:00 | |
| 9A1FER-10 | 2026-09-03 12:29:08 | 45.62438 | 14.97925 | 134° | 26km/h | 17517m | 4.5m/s | 0°C | 0% | 0hPa | 0V | 00:00:00 | 00:00:00 | 00:00:00 | |
| 9A1FER-15 | 2026-09-03 12:28:58 | 45.62483 | 14.97860 | 127° | 33km/h | 17463m | 6.9m/s | 0°C | 0% | 0hPa | 0V | 00:00:00 | 00:00:00 | 00:00:00 | |
| 9A1FER-10 | 2026-09-03 12:28:53 | 45.62509 | 14.97832 | 148° | 33km/h | 17437m | 6.1m/s | 0°C | 0% | 0hPa | 0V | 00:00:00 | 00:00:00 | 00:00:00 | |
| 9A1FER-10 | 2026-09-03 12:28:38 | 45.62605 | 14.97724 | 140° | 33km/h | 17358m | 5.5m/s | 0°C | 0% | 0hPa | 0V | 00:00:00 | 00:00:00 | 00:00:00 | |
| 9A1FER-10 | 2026-09-03 12:28:23 | 45.62692 | 14.97604 | 126° | 37km/h | 17283m | 3.7m/s | 0°C | 0% | 0hPa | 0V | 00:00:00 | 00:00:00 | 00:00:00 | |
| 9A1FER-3 | 2026-09-03 12:28:10 | 45.62766 | 14.97470 | 128° | 51km/h | 17221m | 6.5m/s | 0°C | 0% | 0hPa | 0V | 00:00:00 | 00:00:00 | 00:00:00 | |
| 9A1FER-10 | 2026-09-03 12:28:08 | 45.62775 | 14.97450 | 107° | 37km/h | 17211m | 4.9m/s | 0°C | 0% | 0hPa | 0V | 00:00:00 | 00:00:00 | 00:00:00 | |
| 9A1FER-10 | 2026-09-03 12:27:53 | 45.62829 | 14.97268 | 107° | 42km/h | 17139m | 2.6m/s | 0°C | 0% | 0hPa | 0V | 00:00:00 | 00:00:00 | 00:00:00 | |
| 9A1FER-10 | 2026-09-03 12:27:38 | 45.62904 | 14.97061 | 120° | 44km/h | 17063m | 3.6m/s | 0°C | 0% | 0hPa | 0V | 00:00:00 | 00:00:00 | 00:00:00 | |
| 9A1FER-10 | 2026-09-03 12:27:23 | 45.62973 | 14.96854 | 106° | 40km/h | 16988m | 5.6m/s | 0°C | 0% | 0hPa | 0V | 00:00:00 | 00:00:00 | 00:00:00 | |
| 9A1FER-10 | 2026-09-03 12:27:08 | 45.63028 | 14.96646 | 114° | 42km/h | 16919m | 5.2m/s | 0°C | 0% | 0hPa | 0V | 00:00:00 | 00:00:00 | 00:00:00 | |
| 9A1FER-10 | 2026-09-03 12:26:53 | 45.63097 | 14.96440 | 112° | 44km/h | 16846m | 3.8m/s | 0°C | 0% | 0hPa | 0V | 00:00:00 | 00:00:00 | 00:00:00 | |
| 9A1FER-15 | 2026-09-03 12:26:44 | 45.63155 | 14.96320 | 113° | 46km/h | 16804m | 4.8m/s | 0°C | 0% | 0hPa | 0V | 00:00:00 | 00:00:00 | 00:00:00 | |
| 9A1FER-10 | 2026-09-03 12:26:38 | 45.63182 | 14.96233 | 130° | 38km/h | 16776m | 5.7m/s | 0°C | 0% | 0hPa | 0V | 00:00:00 | 00:00:00 | 00:00:00 | |
| 9A1FER-10 | 2026-09-03 12:26:23 | 45.63256 | 14.96051 | 120° | 42km/h | 16704m | 3.8m/s | 0°C | 0% | 0hPa | 0V | 00:00:00 | 00:00:00 | 00:00:00 | |
| 9A1FER-15 | 2026-09-03 12:26:18 | 45.63283 | 14.95997 | 133° | 53km/h | 16679m | 5.3m/s | 0°C | 0% | 0hPa | 0V | 00:00:00 | 00:00:00 | 00:00:00 | |
| 9A1FER-10 | 2026-09-03 12:26:08 | 45.63360 | 14.95881 | 137° | 51km/h | 16630m | 4.3m/s | 0°C | 0% | 0hPa | 0V | 00:00:00 | 00:00:00 | 00:00:00 | |
| 9A1FER-10 | 2026-09-03 12:25:53 | 45.63509 | 14.95709 | 141° | 62km/h | 16559m | 3.6m/s | 0°C | 0% | 0hPa | 0V | 00:00:00 | 00:00:00 | 00:00:00 | |
| 9A1FER-15 | 2026-09-03 12:25:39 | 45.63687 | 14.95521 | 140° | 62km/h | 16488m | 4.0m/s | 0°C | 0% | 0hPa | 0V | 00:00:00 | 00:00:00 | 00:00:00 | |
| 9A1FER-10 | 2026-09-03 12:25:38 | 45.63701 | 14.95505 | 141° | 71km/h | 16483m | 5.6m/s | 0°C | 0% | 0hPa | 0V | 00:00:00 | 00:00:00 | 00:00:00 | |
| OE3JTB-15 | 2026-09-03 12:25:20 | 45.63978 | 14.95186 | 133° | 66km/h | 16384m | 4.1m/s | 0°C | 0% | 0hPa | 0V | 00:00:00 | 00:00:00 | 00:00:00 | |
| 9A1FER-10 | 2026-09-03 12:25:08 | 45.64099 | 14.95010 | 128° | 68km/h | 16333m | 6.7m/s | 0°C | 0% | 0hPa | 0V | 00:00:00 | 00:00:00 | 00:00:00 | |
| OE3JTB-15 | 2026-09-03 12:24:51 | 45.64308 | 14.94671 | 127° | 58km/h | 16234m | 6.2m/s | 0°C | 0% | 0hPa | 0V | 00:00:00 | 00:00:00 | 00:00:00 | |
| 9A1FER-10 | 2026-09-03 12:24:38 | 45.64411 | 14.94486 | 130° | 58km/h | 16176m | 5.0m/s | 0°C | 0% | 0hPa | 0V | 00:00:00 | 00:00:00 | 00:00:00 | |
| 9A1FER-10 | 2026-09-03 12:24:23 | 45.64562 | 14.94255 | 137° | 66km/h | 16101m | 3.9m/s | 0°C | 0% | 0hPa | 0V | 00:00:00 | 00:00:00 | 00:00:00 | |
| OE3JTB-15 | 2026-09-03 12:24:22 | 45.64584 | 14.94224 | 137° | 66km/h | 16091m | 2.7m/s | 0°C | 0% | 0hPa | 0V | 00:00:00 | 00:00:00 | 00:00:00 | |
| 9A1FER-15 | 2026-09-03 12:24:13 | 45.64671 | 14.94076 | 129° | 68km/h | 16052m | 5.4m/s | 0°C | 0% | 0hPa | 0V | 00:00:00 | 00:00:00 | 00:00:00 | |
| 9A1FER-10 | 2026-09-03 12:24:08 | 45.64724 | 14.93981 | 128° | 66km/h | 16029m | 4.4m/s | 0°C | 0% | 0hPa | 0V | 00:00:00 | 00:00:00 | 00:00:00 | |
| 9A1FER-3 | 2026-09-03 12:23:58 | 45.64822 | 14.93784 | 124° | 60km/h | 15981m | 5.1m/s | 0°C | 0% | 0hPa | 0V | 00:00:00 | 00:00:00 | 00:00:00 | |
| 9A1FER-15 | 2026-09-03 12:23:55 | 45.64846 | 14.93727 | 124° | 57km/h | 15967m | 5.2m/s | 0°C | 0% | 0hPa | 0V | 00:00:00 | 00:00:00 | 00:00:00 | |
| 9A1FER-10 | 2026-09-03 12:23:53 | 45.64865 | 14.93692 | 131° | 53km/h | 15957m | 5.1m/s | 0°C | 0% | 0hPa | 0V | 00:00:00 | 00:00:00 | 00:00:00 | |
| OE3JTB-15 | 2026-09-03 12:23:52 | 45.64874 | 14.93677 | 132° | 57km/h | 15952m | 4.8m/s | 0°C | 0% | 0hPa | 0V | 00:00:00 | 00:00:00 | 00:00:00 | |
| 9A1FER-10 | 2026-09-03 12:23:38 | 45.64991 | 14.93467 | 119° | 64km/h | 15888m | 3.4m/s | 0°C | 0% | 0hPa | 0V | 00:00:00 | 00:00:00 | 00:00:00 | |
| 9A1FER-15 | 2026-09-03 12:23:36 | 45.65006 | 14.93434 | 128° | 66km/h | 15877m | 5.8m/s | 0°C | 0% | 0hPa | 0V | 00:00:00 | 00:00:00 | 00:00:00 | |
| 9A1FER-10 | 2026-09-03 12:23:23 | 45.65139 | 14.93190 | 130° | 62km/h | 15814m | 5.4m/s | 0°C | 0% | 0hPa | 0V | 00:00:00 | 00:00:00 | 00:00:00 | |
| 9A1FER-15 | 2026-09-03 12:23:21 | 45.65159 | 14.93154 | 125° | 62km/h | 15804m | 6.7m/s | 0°C | 0% | 0hPa | 0V | 00:00:00 | 00:00:00 | 00:00:00 | |
| 9A1FER-10 | 2026-09-03 12:23:08 | 45.65276 | 14.92921 | 119° | 58km/h | 15744m | 4.7m/s | 0°C | 0% | 0hPa | 0V | 00:00:00 | 00:00:00 | 00:00:00 | |
| 9A1FER-15 | 2026-09-03 12:23:06 | 45.65292 | 14.92888 | 126° | 58km/h | 15734m | 3.6m/s | 0°C | 0% | 0hPa | 0V | 00:00:00 | 00:00:00 | 00:00:00 | |
| 9A1FER-10 | 2026-09-03 12:22:53 | 45.65399 | 14.92661 | 129° | 57km/h | 15677m | 3.8m/s | 0°C | 0% | 0hPa | 0V | 00:00:00 | 00:00:00 | 00:00:00 | |
| 9A1FER-15 | 2026-09-03 12:22:51 | 45.65415 | 14.92626 | 122° | 55km/h | 15669m | 2.4m/s | 0°C | 0% | 0hPa | 0V | 00:00:00 | 00:00:00 | 00:00:00 | |
| 9A1FER-10 | 2026-09-03 12:22:38 | 45.65526 | 14.92416 | 129° | 55km/h | 15606m | 4.6m/s | 0°C | 0% | 0hPa | 0V | 00:00:00 | 00:00:00 | 00:00:00 | |
| 9A1FER-15 | 2026-09-03 12:22:30 | 45.65600 | 14.92296 | 125° | 58km/h | 15569m | 3.9m/s | 0°C | 0% | 0hPa | 0V | 00:00:00 | 00:00:00 | 00:00:00 | |
| 9A1FER-10 | 2026-09-03 12:22:23 | 45.65664 | 14.92190 | 135° | 58km/h | 15539m | 2.7m/s | 0°C | 0% | 0hPa | 0V | 00:00:00 | 00:00:00 | 00:00:00 | |
| 9A1FER-15 | 2026-09-03 12:22:14 | 45.65747 | 14.92041 | 134° | 57km/h | 15496m | 3.9m/s | 0°C | 0% | 0hPa | 0V | 00:00:00 | 00:00:00 | 00:00:00 | |
| 9A1FER-10 | 2026-09-03 12:22:08 | 45.65804 | 14.91943 | 128° | 57km/h | 15469m | 2.2m/s | 0°C | 0% | 0hPa | 0V | 00:00:00 | 00:00:00 | 00:00:00 | |
| 9A1FER-15 | 2026-09-03 12:21:58 | 45.65907 | 14.91800 | 133° | 68km/h | 15424m | 6.6m/s | 0°C | 0% | 0hPa | 0V | 00:00:00 | 00:00:00 | 00:00:00 | |
| 9A1FER-10 | 2026-09-03 12:21:52 | 45.65968 | 14.91719 | 139° | 57km/h | 15392m | 5.4m/s | 0°C | 0% | 0hPa | 0V | 00:00:00 | 00:00:00 | 00:00:00 | |
| 9A1FER-10 | 2026-09-03 12:21:37 | 45.66122 | 14.91502 | 139° | 58km/h | 15324m | 4.6m/s | 0°C | 0% | 0hPa | 0V | 00:00:00 | 00:00:00 | 00:00:00 | |
| 9A1FER-10 | 2026-09-03 12:21:22 | 45.66299 | 14.91311 | 148° | 66km/h | 15251m | 5.1m/s | 0°C | 0% | 0hPa | 0V | 00:00:00 | 00:00:00 | 00:00:00 | |
| 9A1FER-10 | 2026-09-03 12:21:07 | 45.66477 | 14.91062 | 133° | 68km/h | 15177m | 8.6m/s | 0°C | 0% | 0hPa | 0V | 00:00:00 | 00:00:00 | 00:00:00 | |
| 9A1FER-10 | 2026-09-03 12:20:52 | 45.66660 | 14.90804 | 139° | 73km/h | 15097m | 5.5m/s | 0°C | 0% | 0hPa | 0V | 00:00:00 | 00:00:00 | 00:00:00 | |
| 9A1FER-10 | 2026-09-03 12:20:37 | 45.66831 | 14.90493 | 124° | 75km/h | 15016m | 8.2m/s | 0°C | 0% | 0hPa | 0V | 00:00:00 | 00:00:00 | 00:00:00 | |
| 9A1FER-10 | 2026-09-03 12:20:22 | 45.66981 | 14.90142 | 123° | 77km/h | 14928m | 7.5m/s | 0°C | 0% | 0hPa | 0V | 00:00:00 | 00:00:00 | 00:00:00 | |
| 9A1FER-10 | 2026-09-03 12:20:08 | 45.67118 | 14.89782 | 116° | 69km/h | 14854m | 2.7m/s | 0°C | 0% | 0hPa | 0V | 00:00:00 | 00:00:00 | 00:00:00 | |
| 9A1FER-10 | 2026-09-03 12:19:52 | 45.67243 | 14.89448 | 122° | 68km/h | 14781m | 5.0m/s | 0°C | 0% | 0hPa | 0V | 00:00:00 | 00:00:00 | 00:00:00 | |
| 9A1FER-10 | 2026-09-03 12:19:37 | 45.67352 | 14.89114 | 114° | 64km/h | 14711m | 4.7m/s | 0°C | 0% | 0hPa | 0V | 00:00:00 | 00:00:00 | 00:00:00 | |
| 9A1FER-10 | 2026-09-03 12:19:22 | 45.67458 | 14.88808 | 119° | 64km/h | 14626m | 8.4m/s | 0°C | 0% | 0hPa | 0V | 00:00:00 | 00:00:00 | 00:00:00 | |
| 9A1FER-3 | 2026-09-03 12:19:18 | 45.67489 | 14.88729 | 120° | 62km/h | 14604m | 4.8m/s | 0°C | 0% | 0hPa | 0V | 00:00:00 | 00:00:00 | 00:00:00 | |
| 9A1FER-10 | 2026-09-03 12:19:07 | 45.67580 | 14.88512 | 119° | 66km/h | 14548m | 4.2m/s | 0°C | 0% | 0hPa | 0V | 00:00:00 | 00:00:00 | 00:00:00 | |
| 9A1FER-3 | 2026-09-03 12:19:03 | 45.67616 | 14.88437 | 128° | 73km/h | 14529m | 4.1m/s | 0°C | 0% | 0hPa | 0V | 00:00:00 | 00:00:00 | 00:00:00 | |
| 9A1FER-10 | 2026-09-03 12:18:52 | 45.67729 | 14.88223 | 132° | 75km/h | 14476m | 4.1m/s | 0°C | 0% | 0hPa | 0V | 00:00:00 | 00:00:00 | 00:00:00 | |
| 9A1FER-10 | 2026-09-03 12:18:37 | 45.67910 | 14.87913 | 133° | 71km/h | 14403m | 3.0m/s | 0°C | 0% | 0hPa | 0V | 00:00:00 | 00:00:00 | 00:00:00 | |
| 9A1FER-15 | 2026-09-03 12:18:25 | 45.68065 | 14.87680 | 137° | 69km/h | 14343m | 4.9m/s | 0°C | 0% | 0hPa | 0V | 00:00:00 | 00:00:00 | 00:00:00 | |
| 9A1FER-10 | 2026-09-03 12:18:22 | 45.68101 | 14.87630 | 136° | 75km/h | 14330m | 4.8m/s | 0°C | 0% | 0hPa | 0V | 00:00:00 | 00:00:00 | 00:00:00 | |
| 9A1FER-10 | 2026-09-03 12:18:07 | 45.68290 | 14.87330 | 128° | 80km/h | 14262m | 4.2m/s | 0°C | 0% | 0hPa | 0V | 00:00:00 | 00:00:00 | 00:00:00 | |
| 9A1FER-10 | 2026-09-03 12:17:52 | 45.68492 | 14.87002 | 129° | 78km/h | 14195m | 3.8m/s | 0°C | 0% | 0hPa | 0V | 00:00:00 | 00:00:00 | 00:00:00 | |
| 9A1FER-10 | 2026-09-03 12:17:37 | 45.68690 | 14.86681 | 131° | 75km/h | 14128m | 3.9m/s | 0°C | 0% | 0hPa | 0V | 00:00:00 | 00:00:00 | 00:00:00 | |
| 9A1FER-10 | 2026-09-03 12:17:22 | 45.68875 | 14.86376 | 132° | 77km/h | 14061m | 4.5m/s | 0°C | 0% | 0hPa | 0V | 00:00:00 | 00:00:00 | 00:00:00 | |
| 9A1FER-10 | 2026-09-03 12:16:52 | 45.69251 | 14.85758 | 124° | 71km/h | 13928m | 3.9m/s | 0°C | 0% | 0hPa | 0V | 00:00:00 | 00:00:00 | 00:00:00 | |
| 9A1FER-10 | 2026-09-03 12:16:37 | 45.69408 | 14.85456 | 127° | 68km/h | 13859m | 6.3m/s | 0°C | 0% | 0hPa | 0V | 00:00:00 | 00:00:00 | 00:00:00 | |
| OE3JTB-15 | 2026-09-03 12:16:30 | 45.69482 | 14.85317 | 128° | 89km/h | 13825m | 4.8m/s | 0°C | 0% | 0hPa | 0V | 00:00:00 | 00:00:00 | 00:00:00 | |
| 9A1FER-10 | 2026-09-03 12:16:22 | 45.69566 | 14.85164 | 132° | 69km/h | 13789m | 3.3m/s | 0°C | 0% | 0hPa | 0V | 00:00:00 | 00:00:00 | 00:00:00 | |
| 9A1FER-3 | 2026-09-03 12:16:09 | 45.69718 | 14.84925 | 136° | 68km/h | 13729m | 3.4m/s | 0°C | 0% | 0hPa | 0V | 00:00:00 | 00:00:00 | 00:00:00 | |
| 9A1FER-10 | 2026-09-03 12:16:06 | 45.69753 | 14.84870 | 133° | 68km/h | 13718m | 5.4m/s | 0°C | 0% | 0hPa | 0V | 00:00:00 | 00:00:00 | 00:00:00 | |
| 9A1FER-15 | 2026-09-03 12:15:57 | 45.69864 | 14.84717 | 140° | 64km/h | 13677m | 4.6m/s | 0°C | 0% | 0hPa | 0V | 00:00:00 | 00:00:00 | 00:00:00 | |
| 9A1FER-10 | 2026-09-03 12:15:50 | 45.69950 | 14.84598 | 138° | 68km/h | 13644m | 4.8m/s | 0°C | 0% | 0hPa | 0V | 00:00:00 | 00:00:00 | 00:00:00 | |
| 9A1FER-15 | 2026-09-03 12:15:39 | 45.70089 | 14.84419 | 139° | 80km/h | 13595m | 2.6m/s | 0°C | 0% | 0hPa | 0V | 00:00:00 | 00:00:00 | 00:00:00 | |
| 9A1FER-10 | 2026-09-03 12:15:35 | 45.70143 | 14.84358 | 137° | 68km/h | 13576m | 2.9m/s | 0°C | 0% | 0hPa | 0V | 00:00:00 | 00:00:00 | 00:00:00 | |
| 9A1FER-10 | 2026-09-03 12:15:13 | 45.70446 | 14.83980 | 146° | 82km/h | 13473m | 5.1m/s | 0°C | 0% | 0hPa | 0V | 00:00:00 | 00:00:00 | 00:00:00 | |
| 9A1FER-10 | 2026-09-03 12:14:58 | 45.70695 | 14.83703 | 146° | 93km/h | 13399m | 6.4m/s | 0°C | 0% | 0hPa | 0V | 00:00:00 | 00:00:00 | 00:00:00 | |
| 9A1FER-3 | 2026-09-03 12:14:49 | 45.70859 | 14.83514 | 140° | 91km/h | 13355m | 4.8m/s | 0°C | 0% | 0hPa | 0V | 00:00:00 | 00:00:00 | 00:00:00 | |
| 9A1FER-10 | 2026-09-03 12:14:43 | 45.70966 | 14.83383 | 143° | 89km/h | 13324m | 4.8m/s | 0°C | 0% | 0hPa | 0V | 00:00:00 | 00:00:00 | 00:00:00 | |
| 9A1FER-3 | 2026-09-03 12:14:34 | 45.71119 | 14.83195 | 138° | 88km/h | 13281m | 5.3m/s | 0°C | 0% | 0hPa | 0V | 00:00:00 | 00:00:00 | 00:00:00 | |
| 9A1FER-15 | 2026-09-03 12:14:33 | 45.71135 | 14.83174 | 138° | 88km/h | 13276m | 4.5m/s | 0°C | 0% | 0hPa | 0V | 00:00:00 | 00:00:00 | 00:00:00 | |
| 9A1FER-10 | 2026-09-03 12:14:28 | 45.71223 | 14.83065 | 136° | 86km/h | 13253m | 3.8m/s | 0°C | 0% | 0hPa | 0V | 00:00:00 | 00:00:00 | 00:00:00 | |
| 9A1FER-3 | 2026-09-03 12:14:18 | 45.71385 | 14.82861 | 140° | 89km/h | 13196m | 5.4m/s | 0°C | 0% | 0hPa | 0V | 00:00:00 | 00:00:00 | 00:00:00 | |
| 9A1FER-15 | 2026-09-03 12:14:17 | 45.71402 | 14.82840 | 139° | 89km/h | 13189m | 7.1m/s | 0°C | 0% | 0hPa | 0V | 00:00:00 | 00:00:00 | 00:00:00 | |
| 9A1FER-10 | 2026-09-03 12:14:13 | 45.71470 | 14.82762 | 143° | 95km/h | 13166m | 5.9m/s | 0°C | 0% | 0hPa | 0V | 00:00:00 | 00:00:00 | 00:00:00 | |
| 9A1FER-15 | 2026-09-03 12:14:02 | 45.71677 | 14.82537 | 144° | 102km/h | 13108m | 3.6m/s | 0°C | 0% | 0hPa | 0V | 00:00:00 | 00:00:00 | 00:00:00 | |
| 9A1FER-10 | 2026-09-03 12:13:58 | 45.71756 | 14.82449 | 143° | 111km/h | 13088m | 3.4m/s | 0°C | 0% | 0hPa | 0V | 00:00:00 | 00:00:00 | 00:00:00 | |
| 9A1FER-15 | 2026-09-03 12:13:47 | 45.71992 | 14.82182 | 139° | 119km/h | 13035m | 5.3m/s | 0°C | 0% | 0hPa | 0V | 00:00:00 | 00:00:00 | 00:00:00 | |
| 9A1FER-3 | 2026-09-03 12:13:46 | 45.72016 | 14.82151 | 137° | 117km/h | 13031m | 3.0m/s | 0°C | 0% | 0hPa | 0V | 00:00:00 | 00:00:00 | 00:00:00 | |
| 9A1FER-10 | 2026-09-03 12:13:43 | 45.72082 | 14.82062 | 138° | 117km/h | 13017m | 5.0m/s | 0°C | 0% | 0hPa | 0V | 00:00:00 | 00:00:00 | 00:00:00 | |
| 9A1FER-15 | 2026-09-03 12:13:31 | 45.72342 | 14.81716 | 137° | 111km/h | 12963m | 6.1m/s | 0°C | 0% | 0hPa | 0V | 00:00:00 | 00:00:00 | 00:00:00 | |
| 9A1FER-10 | 2026-09-03 12:13:28 | 45.72405 | 14.81629 | 136° | 110km/h | 12949m | 3.7m/s | 0°C | 0% | 0hPa | 0V | 00:00:00 | 00:00:00 | 00:00:00 | |
| 9A1FER-15 | 2026-09-03 12:13:15 | 45.72666 | 14.81269 | 136° | 102km/h | 12889m | 5.4m/s | 0°C | 0% | 0hPa | 0V | 00:00:00 | 00:00:00 | 00:00:00 | |
| 9A1FER-10 | 2026-09-03 12:13:13 | 45.72706 | 14.81217 | 137° | 102km/h | 12877m | 6.0m/s | 0°C | 0% | 0hPa | 0V | 00:00:00 | 00:00:00 | 00:00:00 | |
| 9A1FER-3 | 2026-09-03 12:13:08 | 45.72802 | 14.81084 | 135° | 100km/h | 12854m | 5.9m/s | 0°C | 0% | 0hPa | 0V | 00:00:00 | 00:00:00 | 00:00:00 | |
| 9A1FER-15 | 2026-09-03 12:13:00 | 45.72953 | 14.80891 | 137° | 99km/h | 12814m | 5.3m/s | 0°C | 0% | 0hPa | 0V | 00:00:00 | 00:00:00 | 00:00:00 | |
| 9A1FER-10 | 2026-09-03 12:12:58 | 45.72989 | 14.80842 | 139° | 99km/h | 12805m | 6.8m/s | 0°C | 0% | 0hPa | 0V | 00:00:00 | 00:00:00 | 00:00:00 | |
| 9A1FER-3 | 2026-09-03 12:12:53 | 45.73088 | 14.80728 | 145° | 97km/h | 12778m | 4.5m/s | 0°C | 0% | 0hPa | 0V | 00:00:00 | 00:00:00 | 00:00:00 | |
| 9A1FER-15 | 2026-09-03 12:12:45 | 45.73240 | 14.80559 | 144° | 110km/h | 12737m | 4.5m/s | 0°C | 0% | 0hPa | 0V | 00:00:00 | 00:00:00 | 00:00:00 | |
| 9A1FER-10 | 2026-09-03 12:12:43 | 45.73282 | 14.80518 | 146° | 93km/h | 12727m | 5.8m/s | 0°C | 0% | 0hPa | 0V | 00:00:00 | 00:00:00 | 00:00:00 | |
| 9A1FER-3 | 2026-09-03 12:12:33 | 45.73479 | 14.80319 | 149° | 95km/h | 12680m | 4.6m/s | 0°C | 0% | 0hPa | 0V | 00:00:00 | 00:00:00 | 00:00:00 | |
| 9A1FER-10 | 2026-09-03 12:12:28 | 45.73574 | 14.80235 | 148° | 102km/h | 12650m | 3.0m/s | 0°C | 0% | 0hPa | 0V | 00:00:00 | 00:00:00 | 00:00:00 | |
| 9A1FER-3 | 2026-09-03 12:12:18 | 45.73796 | 14.80043 | 150° | 108km/h | 12593m | 3.1m/s | 0°C | 0% | 0hPa | 0V | 00:00:00 | 00:00:00 | 00:00:00 | |
| 9A1FER-10 | 2026-09-03 12:12:14 | 45.73908 | 14.79952 | 147° | 111km/h | 12568m | 3.9m/s | 0°C | 0% | 0hPa | 0V | 00:00:00 | 00:00:00 | 00:00:00 | |
| OM5KV | 2026-09-03 12:12:04 | 45.74122 | 14.79775 | 151° | 113km/h | 12511m | 6.4m/s | 0°C | 0% | 0hPa | 0V | 00:00:00 | 00:00:00 | 00:00:00 | |
| 9A1FER-3 | 2026-09-03 12:12:02 | 45.74171 | 14.79735 | 151° | 119km/h | 12498m | 5.0m/s | 0°C | 0% | 0hPa | 0V | 00:00:00 | 00:00:00 | 00:00:00 | |
| OM5KV | 2026-09-03 12:12:00 | 45.74221 | 14.79692 | 149° | 119km/h | 12488m | 6.3m/s | 0°C | 0% | 0hPa | 0V | 00:00:00 | 00:00:00 | 00:00:00 | |
| 9A1FER-10 | 2026-09-03 12:11:58 | 45.74273 | 14.79643 | 147° | 119km/h | 12479m | 7.1m/s | 0°C | 0% | 0hPa | 0V | 00:00:00 | 00:00:00 | 00:00:00 | |
| OM5KV | 2026-09-03 12:11:54 | 45.74377 | 14.79554 | 151° | 113km/h | 12455m | 4.3m/s | 0°C | 0% | 0hPa | 0V | 00:00:00 | 00:00:00 | 00:00:00 | |
| OM5KV | 2026-09-03 12:11:52 | 45.74428 | 14.79513 | 152° | 119km/h | 12444m | 4.8m/s | 0°C | 0% | 0hPa | 0V | 00:00:00 | 00:00:00 | 00:00:00 | |
| OM5KV | 2026-09-03 12:11:48 | 45.74532 | 14.79424 | 150° | 120km/h | 12423m | 7.2m/s | 0°C | 0% | 0hPa | 0V | 00:00:00 | 00:00:00 | 00:00:00 | |
| OM5KV | 2026-09-03 12:11:47 | 45.74557 | 14.79402 | 149° | 119km/h | 12417m | 3.7m/s | 0°C | 0% | 0hPa | 0V | 00:00:00 | 00:00:00 | 00:00:00 | |
| 9A1FER-15 | 2026-09-03 12:11:46 | 45.74583 | 14.79379 | 150° | 120km/h | 12413m | 4.8m/s | 0°C | 0% | 0hPa | 0V | 00:00:00 | 00:00:00 | 00:00:00 | |
| 9A1FER-10 | 2026-09-03 12:11:43 | 45.74661 | 14.79314 | 150° | 122km/h | 12397m | 5.4m/s | 0°C | 0% | 0hPa | 0V | 00:00:00 | 00:00:00 | 00:00:00 | |
| OM5KV | 2026-09-03 12:11:42 | 45.74688 | 14.79292 | 151° | 120km/h | 12393m | 3.2m/s | 0°C | 0% | 0hPa | 0V | 00:00:00 | 00:00:00 | 00:00:00 | |
| OM5KV | 2026-09-03 12:11:34 | 45.74895 | 14.79110 | 149° | 120km/h | 12348m | 4.1m/s | 0°C | 0% | 0hPa | 0V | 00:00:00 | 00:00:00 | 00:00:00 | |
| 9A1FER-15 | 2026-09-03 12:11:31 | 45.74973 | 14.79035 | 145° | 120km/h | 12333m | 5.9m/s | 0°C | 0% | 0hPa | 0V | 00:00:00 | 00:00:00 | 00:00:00 | |
| 9A1FER-10 | 2026-09-03 12:11:28 | 45.75053 | 14.78956 | 147° | 115km/h | 12319m | 4.4m/s | 0°C | 0% | 0hPa | 0V | 00:00:00 | 00:00:00 | 00:00:00 | |
| OM5KV | 2026-09-03 12:11:27 | 45.75078 | 14.78932 | 146° | 117km/h | 12315m | 5.6m/s | 0°C | 0% | 0hPa | 0V | 00:00:00 | 00:00:00 | 00:00:00 | |
| OM5KV | 2026-09-03 12:11:18 | 45.75295 | 14.78706 | 142° | 111km/h | 12272m | 3.8m/s | 0°C | 0% | 0hPa | 0V | 00:00:00 | 00:00:00 | 00:00:00 | |
| 9A1FER-15 | 2026-09-03 12:11:16 | 45.75339 | 14.78659 | 145° | 110km/h | 12263m | 3.1m/s | 0°C | 0% | 0hPa | 0V | 00:00:00 | 00:00:00 | 00:00:00 | |
| 9A1FER-10 | 2026-09-03 12:11:13 | 45.75407 | 14.78587 | 144° | 111km/h | 12251m | 4.9m/s | 0°C | 0% | 0hPa | 0V | 00:00:00 | 00:00:00 | 00:00:00 | |
| 9A1FER-3 | 2026-09-03 12:11:11 | 45.75453 | 14.78540 | 144° | 110km/h | 12242m | 5.5m/s | 0°C | 0% | 0hPa | 0V | 00:00:00 | 00:00:00 | 00:00:00 | |
| OM5KV | 2026-09-03 12:11:07 | 45.75545 | 14.78443 | 145° | 110km/h | 12224m | 6.0m/s | 0°C | 0% | 0hPa | 0V | 00:00:00 | 00:00:00 | 00:00:00 | |
| 9A1FER-15 | 2026-09-03 12:11:00 | 45.75701 | 14.78280 | 144° | 108km/h | 12194m | 4.8m/s | 0°C | 0% | 0hPa | 0V | 00:00:00 | 00:00:00 | 00:00:00 | |
| 9A1FER-10 | 2026-09-03 12:10:58 | 45.75746 | 14.78233 | 142° | 104km/h | 12186m | 6.1m/s | 0°C | 0% | 0hPa | 0V | 00:00:00 | 00:00:00 | 00:00:00 | |
| 9A1FER-3 | 2026-09-03 12:10:55 | 45.75811 | 14.78160 | 141° | 100km/h | 12172m | 4.3m/s | 0°C | 0% | 0hPa | 0V | 00:00:00 | 00:00:00 | 00:00:00 | |
| 9A1FER-15 | 2026-09-03 12:10:45 | 45.76016 | 14.77927 | 141° | 102km/h | 12128m | 4.5m/s | 0°C | 0% | 0hPa | 0V | 00:00:00 | 00:00:00 | 00:00:00 | |
| 9A1FER-10 | 2026-09-03 12:10:42 | 45.76077 | 14.77861 | 144° | 102km/h | 12113m | 6.6m/s | 0°C | 0% | 0hPa | 0V | 00:00:00 | 00:00:00 | 00:00:00 | |
| 9A1FER-3 | 2026-09-03 12:10:40 | 45.76117 | 14.77816 | 142° | 102km/h | 12104m | 4.5m/s | 0°C | 0% | 0hPa | 0V | 00:00:00 | 00:00:00 | 00:00:00 | |
| OM5KV | 2026-09-03 12:10:38 | 45.76159 | 14.77769 | 141° | 102km/h | 12096m | 5.5m/s | 0°C | 0% | 0hPa | 0V | 00:00:00 | 00:00:00 | 00:00:00 | |
| 9A1FER-15 | 2026-09-03 12:10:30 | 45.76322 | 14.77590 | 143° | 100km/h | 12060m | 5.4m/s | 0°C | 0% | 0hPa | 0V | 00:00:00 | 00:00:00 | 00:00:00 | |
| 9A1FER-10 | 2026-09-03 12:10:27 | 45.76383 | 14.77524 | 142° | 97km/h | 12046m | 5.8m/s | 0°C | 0% | 0hPa | 0V | 00:00:00 | 00:00:00 | 00:00:00 | |
| 9A1FER-3 | 2026-09-03 12:10:16 | 45.76606 | 14.77297 | 147° | 93km/h | 11995m | 6.6m/s | 0°C | 0% | 0hPa | 0V | 00:00:00 | 00:00:00 | 00:00:00 | |
| 9A1FER-15 | 2026-09-03 12:10:15 | 45.76627 | 14.77277 | 147° | 93km/h | 11991m | 3.9m/s | 0°C | 0% | 0hPa | 0V | 00:00:00 | 00:00:00 | 00:00:00 | |
| 9A1FER-10 | 2026-09-03 12:10:12 | 45.76684 | 14.77219 | 147° | 91km/h | 11979m | 4.1m/s | 0°C | 0% | 0hPa | 0V | 00:00:00 | 00:00:00 | 00:00:00 | |
| OM5KV | 2026-09-03 12:10:06 | 45.76811 | 14.77106 | 146° | 99km/h | 11951m | 3.4m/s | 0°C | 0% | 0hPa | 0V | 00:00:00 | 00:00:00 | 00:00:00 | |
| OM5KV | 2026-09-03 12:10:05 | 45.76831 | 14.77086 | 148° | 99km/h | 11946m | 6.6m/s | 0°C | 0% | 0hPa | 0V | 00:00:00 | 00:00:00 | 00:00:00 | |
| OM5KV | 2026-09-03 12:10:03 | 45.76872 | 14.77049 | 147° | 89km/h | 11938m | 5.3m/s | 0°C | 0% | 0hPa | 0V | 00:00:00 | 00:00:00 | 00:00:00 | |
| 9A1FER-3 | 2026-09-03 12:10:00 | 45.76927 | 14.76996 | 148° | 95km/h | 11925m | 3.7m/s | 0°C | 0% | 0hPa | 0V | 00:00:00 | 00:00:00 | 00:00:00 | |
| 9A1FER-10 | 2026-09-03 12:09:57 | 45.76988 | 14.76947 | 150° | 97km/h | 11910m | 5.5m/s | 0°C | 0% | 0hPa | 0V | 00:00:00 | 00:00:00 | 00:00:00 | |
| 9A1FER-15 | 2026-09-03 12:09:54 | 45.77051 | 14.76895 | 152° | 99km/h | 11891m | 8.4m/s | 0°C | 0% | 0hPa | 0V | 00:00:00 | 00:00:00 | 00:00:00 | |
| OM5KV | 2026-09-03 12:09:53 | 45.77073 | 14.76879 | 152° | 97km/h | 11885m | 3.8m/s | 0°C | 0% | 0hPa | 0V | 00:00:00 | 00:00:00 | 00:00:00 | |
| OM5KV | 2026-09-03 12:09:49 | 45.77152 | 14.76809 | 152° | 89km/h | 11862m | 7.9m/s | 0°C | 0% | 0hPa | 0V | 00:00:00 | 00:00:00 | 00:00:00 | |
| 9A1FER-3 | 2026-09-03 12:09:44 | 45.77264 | 14.76723 | 149° | 97km/h | 11835m | 6.1m/s | 0°C | 0% | 0hPa | 0V | 00:00:00 | 00:00:00 | 00:00:00 | |
| 9A1FER-10 | 2026-09-03 12:09:42 | 45.77307 | 14.76689 | 153° | 97km/h | 11825m | 5.1m/s | 0°C | 0% | 0hPa | 0V | 00:00:00 | 00:00:00 | 00:00:00 | |
| OM5KV | 2026-09-03 12:09:38 | 45.77391 | 14.76622 | 146° | 97km/h | 11804m | 3.9m/s | 0°C | 0% | 0hPa | 0V | 00:00:00 | 00:00:00 | 00:00:00 | |
| OM5KV | 2026-09-03 12:09:37 | 45.77412 | 14.76602 | 148° | 100km/h | 11800m | 5.1m/s | 0°C | 0% | 0hPa | 0V | 00:00:00 | 00:00:00 | 00:00:00 | |
| 9A1FER-15 | 2026-09-03 12:09:35 | 45.77454 | 14.76566 | 152° | 100km/h | 11790m | 5.9m/s | 0°C | 0% | 0hPa | 0V | 00:00:00 | 00:00:00 | 00:00:00 | |
| OM5KV | 2026-09-03 12:09:34 | 45.77475 | 14.76550 | 154° | 91km/h | 11784m | 4.5m/s | 0°C | 0% | 0hPa | 0V | 00:00:00 | 00:00:00 | 00:00:00 | |
| OM5KV | 2026-09-03 12:09:31 | 45.77541 | 14.76501 | 154° | 104km/h | 11769m | 4.7m/s | 0°C | 0% | 0hPa | 0V | 00:00:00 | 00:00:00 | 00:00:00 | |
| OM5KV | 2026-09-03 12:09:30 | 45.77564 | 14.76484 | 153° | 104km/h | 11763m | 6.6m/s | 0°C | 0% | 0hPa | 0V | 00:00:00 | 00:00:00 | 00:00:00 | |
| 9A1FER-3 | 2026-09-03 12:09:29 | 45.77587 | 14.76466 | 150° | 100km/h | 11757m | 5.4m/s | 0°C | 0% | 0hPa | 0V | 00:00:00 | 00:00:00 | 00:00:00 | |
| 9A1FER-10 | 2026-09-03 12:09:27 | 45.77630 | 14.76429 | 149° | 97km/h | 11747m | 7.1m/s | 0°C | 0% | 0hPa | 0V | 00:00:00 | 00:00:00 | 00:00:00 | |
| OM5KV | 2026-09-03 12:09:21 | 45.77759 | 14.76329 | 155° | 104km/h | 11717m | 4.2m/s | 0°C | 0% | 0hPa | 0V | 00:00:00 | 00:00:00 | 00:00:00 | |
| OM5KV | 2026-09-03 12:09:16 | 45.77901 | 14.76228 | 157° | 104km/h | 11688m | 3.9m/s | 0°C | 0% | 0hPa | 0V | 00:00:00 | 00:00:00 | 00:00:00 | |
| 9A1FER-3 | 2026-09-03 12:09:14 | 45.77923 | 14.76212 | 151° | 97km/h | 11681m | 10.1m/s | 0°C | 0% | 0hPa | 0V | 00:00:00 | 00:00:00 | 00:00:00 | |
| OM5KV | 2026-09-03 12:09:13 | 45.77942 | 14.76196 | 147° | 84km/h | 11673m | 4.0m/s | 0°C | 0% | 0hPa | 0V | 00:00:00 | 00:00:00 | 00:00:00 | |
| 9A1FER-10 | 2026-09-03 12:09:11 | 45.77976 | 14.76161 | 147° | 102km/h | 11662m | 7.2m/s | 0°C | 0% | 0hPa | 0V | 00:00:00 | 00:00:00 | 00:00:00 | |
| OM5KV | 2026-09-03 12:09:09 | 45.78025 | 14.76123 | 155° | 126km/h | 11649m | 6.6m/s | 0°C | 0% | 0hPa | 0V | 00:00:00 | 00:00:00 | 00:00:00 | |
| OM5KV | 2026-09-03 12:09:08 | 45.78054 | 14.76103 | 155° | 128km/h | 11643m | 5.0m/s | 0°C | 0% | 0hPa | 0V | 00:00:00 | 00:00:00 | 00:00:00 | |
| OM5KV | 2026-09-03 12:09:01 | 45.78211 | 14.75974 | 153° | 97km/h | 11591m | 10.3m/s | 0°C | 0% | 0hPa | 0V | 00:00:00 | 00:00:00 | 00:00:00 | |
| 9A1FER-3 | 2026-09-03 12:08:58 | 45.78277 | 14.75924 | 155° | 113km/h | 11569m | 5.3m/s | 0°C | 0% | 0hPa | 0V | 00:00:00 | 00:00:00 | 00:00:00 | |
| 9A1FER-10 | 2026-09-03 12:08:55 | 45.78357 | 14.75866 | 156° | 113km/h | 11553m | 1.6m/s | 0°C | 0% | 0hPa | 0V | 00:00:00 | 00:00:00 | 00:00:00 | |
| OM5KV | 2026-09-03 12:08:54 | 45.78386 | 14.75849 | 161° | 122km/h | 11549m | 6.4m/s | 0°C | 0% | 0hPa | 0V | 00:00:00 | 00:00:00 | 00:00:00 | |
| OM5KV | 2026-09-03 12:08:45 | 45.78608 | 14.75711 | 158° | 119km/h | 11494m | 9.4m/s | 0°C | 0% | 0hPa | 0V | 00:00:00 | 00:00:00 | 00:00:00 | |
| 9A1FER-3 | 2026-09-03 12:08:41 | 45.78722 | 14.75662 | 164° | 115km/h | 11469m | 3.8m/s | 0°C | 0% | 0hPa | 0V | 00:00:00 | 00:00:00 | 00:00:00 | |
| OM5KV | 2026-09-03 12:08:39 | 45.78773 | 14.75636 | 159° | 106km/h | 11460m | 5.1m/s | 0°C | 0% | 0hPa | 0V | 00:00:00 | 00:00:00 | 00:00:00 | |
| 9A1FER-10 | 2026-09-03 12:08:37 | 45.78824 | 14.75605 | 157° | 119km/h | 11449m | 3.7m/s | 0°C | 0% | 0hPa | 0V | 00:00:00 | 00:00:00 | 00:00:00 | |
| 9A1FER-15 | 2026-09-03 12:08:35 | 45.78877 | 14.75576 | 161° | 122km/h | 11438m | 4.6m/s | 0°C | 0% | 0hPa | 0V | 00:00:00 | 00:00:00 | 00:00:00 | |
| OM5KV | 2026-09-03 12:08:34 | 45.78904 | 14.75562 | 160° | 117km/h | 11432m | 5.2m/s | 0°C | 0% | 0hPa | 0V | 00:00:00 | 00:00:00 | 00:00:00 | |
| OM5KV | 2026-09-03 12:08:27 | 45.79109 | 14.75451 | 159° | 115km/h | 11391m | 3.9m/s | 0°C | 0% | 0hPa | 0V | 00:00:00 | 00:00:00 | 00:00:00 | |
| 9A1FER-3 | 2026-09-03 12:08:26 | 45.79136 | 14.75435 | 160° | 120km/h | 11385m | 7.2m/s | 0°C | 0% | 0hPa | 0V | 00:00:00 | 00:00:00 | 00:00:00 | |
| 9A1FER-10 | 2026-09-03 12:08:22 | 45.79251 | 14.75375 | 162° | 122km/h | 11363m | 2.7m/s | 0°C | 0% | 0hPa | 0V | 00:00:00 | 00:00:00 | 00:00:00 | |
| OM5KV | 2026-09-03 12:08:21 | 45.79281 | 14.75360 | 162° | 124km/h | 11359m | 6.3m/s | 0°C | 0% | 0hPa | 0V | 00:00:00 | 00:00:00 | 00:00:00 | |
| 9A1FER-15 | 2026-09-03 12:08:19 | 45.79339 | 14.75332 | 162° | 119km/h | 11349m | 3.2m/s | 0°C | 0% | 0hPa | 0V | 00:00:00 | 00:00:00 | 00:00:00 | |
| OM5KV | 2026-09-03 12:08:13 | 45.79505 | 14.75246 | 164° | 122km/h | 11316m | 7.4m/s | 0°C | 0% | 0hPa | 0V | 00:00:00 | 00:00:00 | 00:00:00 | |
| 9A1FER-3 | 2026-09-03 12:08:11 | 45.79564 | 14.75220 | 162° | 120km/h | 11304m | 5.0m/s | 0°C | 0% | 0hPa | 0V | 00:00:00 | 00:00:00 | 00:00:00 | |
| 9A1FER-10 | 2026-09-03 12:08:07 | 45.79678 | 14.75160 | 157° | 120km/h | 11281m | 4.4m/s | 0°C | 0% | 0hPa | 0V | 00:00:00 | 00:00:00 | 00:00:00 | |
| 9A1FER-15 | 2026-09-03 12:08:04 | 45.79760 | 14.75109 | 158° | 117km/h | 11266m | 4.7m/s | 0°C | 0% | 0hPa | 0V | 00:00:00 | 00:00:00 | 00:00:00 | |
| 9A1FER-3 | 2026-09-03 12:07:55 | 45.80015 | 14.74973 | 159° | 115km/h | 11211m | 3.8m/s | 0°C | 0% | 0hPa | 0V | 00:00:00 | 00:00:00 | 00:00:00 | |
| 9A1FER-10 | 2026-09-03 12:07:51 | 45.80124 | 14.74908 | 158° | 117km/h | 11190m | 5.2m/s | 0°C | 0% | 0hPa | 0V | 00:00:00 | 00:00:00 | 00:00:00 | |
| OM5KV | 2026-09-03 12:07:49 | 45.80181 | 14.74875 | 161° | 117km/h | 11180m | 5.2m/s | 0°C | 0% | 0hPa | 0V | 00:00:00 | 00:00:00 | 00:00:00 | |
| 9A1FER-15 | 2026-09-03 12:07:46 | 45.80263 | 14.74830 | 158° | 117km/h | 11163m | 5.3m/s | 0°C | 0% | 0hPa | 0V | 00:00:00 | 00:00:00 | 00:00:00 | |
| OM5KV | 2026-09-03 12:07:41 | 45.80396 | 14.74748 | 161° | 106km/h | 11137m | 3.4m/s | 0°C | 0% | 0hPa | 0V | 00:00:00 | 00:00:00 | 00:00:00 | |
| 9A1FER-10 | 2026-09-03 12:07:36 | 45.80532 | 14.74673 | 157° | 117km/h | 11115m | 4.4m/s | 0°C | 0% | 0hPa | 0V | 00:00:00 | 00:00:00 | 00:00:00 | |
| OM5KV | 2026-09-03 12:07:31 | 45.80666 | 14.74588 | 161° | 115km/h | 11090m | 8.9m/s | 0°C | 0% | 0hPa | 0V | 00:00:00 | 00:00:00 | 00:00:00 | |
| OM5KV | 2026-09-03 12:07:30 | 45.80693 | 14.74574 | 162° | 113km/h | 11083m | 7.0m/s | 0°C | 0% | 0hPa | 0V | 00:00:00 | 00:00:00 | 00:00:00 | |
| OM5KV | 2026-09-03 12:07:25 | 45.80832 | 14.74500 | 157° | 117km/h | 11055m | 4.2m/s | 0°C | 0% | 0hPa | 0V | 00:00:00 | 00:00:00 | 00:00:00 | |
| 9A1FER-10 | 2026-09-03 12:07:21 | 45.80941 | 14.74437 | 160° | 119km/h | 11034m | 3.9m/s | 0°C | 0% | 0hPa | 0V | 00:00:00 | 00:00:00 | 00:00:00 | |
| OM5KV | 2026-09-03 12:07:19 | 45.80997 | 14.74406 | 158° | 120km/h | 11024m | 4.8m/s | 0°C | 0% | 0hPa | 0V | 00:00:00 | 00:00:00 | 00:00:00 | |
| 9A1FER-15 | 2026-09-03 12:07:12 | 45.81188 | 14.74299 | 158° | 119km/h | 10989m | 3.6m/s | 0°C | 0% | 0hPa | 0V | 00:00:00 | 00:00:00 | 00:00:00 | |
| OM5KV | 2026-09-03 12:07:11 | 45.81216 | 14.74283 | 159° | 119km/h | 10983m | 7.9m/s | 0°C | 0% | 0hPa | 0V | 00:00:00 | 00:00:00 | 00:00:00 | |
| 9A1FER-15 | 2026-09-03 12:06:56 | 45.81629 | 14.74023 | 159° | 119km/h | 10891m | 7.2m/s | 0°C | 0% | 0hPa | 0V | 00:00:00 | 00:00:00 | 00:00:00 | |
| OM5KV | 2026-09-03 12:06:49 | 45.81819 | 14.73914 | 158° | 124km/h | 10857m | 4.6m/s | 0°C | 0% | 0hPa | 0V | 00:00:00 | 00:00:00 | 00:00:00 | |
| 9A1FER-3 | 2026-09-03 12:06:43 | 45.81989 | 14.73812 | 158° | 120km/h | 10826m | 4.6m/s | 0°C | 0% | 0hPa | 0V | 00:00:00 | 00:00:00 | 00:00:00 | |
| 9A1FER-15 | 2026-09-03 12:06:41 | 45.82045 | 14.73777 | 155° | 120km/h | 10818m | 3.4m/s | 0°C | 0% | 0hPa | 0V | 00:00:00 | 00:00:00 | 00:00:00 | |
| 9A1FER-10 | 2026-09-03 12:06:39 | 45.82099 | 14.73742 | 158° | 120km/h | 10810m | 4.3m/s | 0°C | 0% | 0hPa | 0V | 00:00:00 | 00:00:00 | 00:00:00 | |
| 9A1FER-3 | 2026-09-03 12:06:28 | 45.82413 | 14.73562 | 159° | 120km/h | 10760m | 4.4m/s | 0°C | 0% | 0hPa | 0V | 00:00:00 | 00:00:00 | 00:00:00 | |
| OM5KV | 2026-09-03 12:06:27 | 45.82441 | 14.73547 | 160° | 119km/h | 10756m | 4.0m/s | 0°C | 0% | 0hPa | 0V | 00:00:00 | 00:00:00 | 00:00:00 | |
| 9A1FER-15 | 2026-09-03 12:06:26 | 45.82469 | 14.73531 | 158° | 120km/h | 10752m | 4.3m/s | 0°C | 0% | 0hPa | 0V | 00:00:00 | 00:00:00 | 00:00:00 | |
| OM5KV | 2026-09-03 12:06:23 | 45.82555 | 14.73482 | 160° | 120km/h | 10739m | 3.7m/s | 0°C | 0% | 0hPa | 0V | 00:00:00 | 00:00:00 | 00:00:00 | |
| 9A1FER-3 | 2026-09-03 12:06:13 | 45.82838 | 14.73315 | 158° | 120km/h | 10695m | 3.6m/s | 0°C | 0% | 0hPa | 0V | 00:00:00 | 00:00:00 | 00:00:00 | |
| OM5KV | 2026-09-03 12:06:12 | 45.82867 | 14.73299 | 160° | 122km/h | 10691m | 4.4m/s | 0°C | 0% | 0hPa | 0V | 00:00:00 | 00:00:00 | 00:00:00 | |
| 9A1FER-15 | 2026-09-03 12:06:11 | 45.82896 | 14.73283 | 160° | 120km/h | 10687m | 3.8m/s | 0°C | 0% | 0hPa | 0V | 00:00:00 | 00:00:00 | 00:00:00 | |
| OM5KV | 2026-09-03 12:05:58 | 45.83261 | 14.73068 | 158° | 120km/h | 10631m | 3.0m/s | 0°C | 0% | 0hPa | 0V | 00:00:00 | 00:00:00 | 00:00:00 | |
| 9A1FER-3 | 2026-09-03 12:05:57 | 45.83289 | 14.73051 | 159° | 120km/h | 10627m | 5.6m/s | 0°C | 0% | 0hPa | 0V | 00:00:00 | 00:00:00 | 00:00:00 | |
| 9A1FER-15 | 2026-09-03 12:05:56 | 45.83317 | 14.73036 | 160° | 119km/h | 10622m | 3.4m/s | 0°C | 0% | 0hPa | 0V | 00:00:00 | 00:00:00 | 00:00:00 | |
| OM5KV | 2026-09-03 12:05:54 | 45.83374 | 14.73003 | 158° | 122km/h | 10613m | 3.2m/s | 0°C | 0% | 0hPa | 0V | 00:00:00 | 00:00:00 | 00:00:00 | |
| OM5KV | 2026-09-03 12:05:53 | 45.83403 | 14.72986 | 159° | 120km/h | 10609m | 6.4m/s | 0°C | 0% | 0hPa | 0V | 00:00:00 | 00:00:00 | 00:00:00 | |
| OM5KV | 2026-09-03 12:05:46 | 45.83597 | 14.72872 | 159° | 122km/h | 10577m | 5.0m/s | 0°C | 0% | 0hPa | 0V | 00:00:00 | 00:00:00 | 00:00:00 | |
| 9A1FER-3 | 2026-09-03 12:05:42 | 45.83713 | 14.72811 | 160° | 120km/h | 10559m | 5.6m/s | 0°C | 0% | 0hPa | 0V | 00:00:00 | 00:00:00 | 00:00:00 | |
| 9A1FER-15 | 2026-09-03 12:05:41 | 45.83741 | 14.72795 | 159° | 120km/h | 10555m | 3.5m/s | 0°C | 0% | 0hPa | 0V | 00:00:00 | 00:00:00 | 00:00:00 | |
| OM5KV | 2026-09-03 12:05:35 | 45.83909 | 14.72692 | 159° | 124km/h | 10530m | 3.2m/s | 0°C | 0% | 0hPa | 0V | 00:00:00 | 00:00:00 | 00:00:00 | |
| 9A1FER-3 | 2026-09-03 12:05:27 | 45.84138 | 14.72562 | 157° | 120km/h | 10495m | 3.5m/s | 0°C | 0% | 0hPa | 0V | 00:00:00 | 00:00:00 | 00:00:00 | |
| 9A1FER-15 | 2026-09-03 12:05:23 | 45.84251 | 14.72497 | 159° | 120km/h | 10479m | 4.1m/s | 0°C | 0% | 0hPa | 0V | 00:00:00 | 00:00:00 | 00:00:00 | |
| OM5KV | 2026-09-03 12:05:22 | 45.84280 | 14.72481 | 161° | 122km/h | 10474m | 5.3m/s | 0°C | 0% | 0hPa | 0V | 00:00:00 | 00:00:00 | 00:00:00 | |
| 9A1FER-10 | 2026-09-03 12:05:14 | 45.84509 | 14.72352 | 159° | 117km/h | 10436m | 3.7m/s | 0°C | 0% | 0hPa | 0V | 00:00:00 | 00:00:00 | 00:00:00 | |
| 9A1FER-3 | 2026-09-03 12:05:12 | 45.84565 | 14.72320 | 159° | 119km/h | 10428m | 5.1m/s | 0°C | 0% | 0hPa | 0V | 00:00:00 | 00:00:00 | 00:00:00 | |
| 9A1FER-15 | 2026-09-03 12:05:08 | 45.84677 | 14.72260 | 157° | 119km/h | 10410m | 5.4m/s | 0°C | 0% | 0hPa | 0V | 00:00:00 | 00:00:00 | 00:00:00 | |
| 9A1FER-3 | 2026-09-03 12:04:55 | 45.85037 | 14.72041 | 156° | 119km/h | 10351m | 2.3m/s | 0°C | 0% | 0hPa | 0V | 00:00:00 | 00:00:00 | 00:00:00 | |
| 9A1FER-15 | 2026-09-03 12:04:53 | 45.85094 | 14.72005 | 158° | 119km/h | 10342m | 4.1m/s | 0°C | 0% | 0hPa | 0V | 00:00:00 | 00:00:00 | 00:00:00 | |
| 9A1FER-3 | 2026-09-03 12:04:40 | 45.85457 | 14.71792 | 158° | 117km/h | 10284m | 5.1m/s | 0°C | 0% | 0hPa | 0V | 00:00:00 | 00:00:00 | 00:00:00 | |
| 9A1FER-15 | 2026-09-03 12:04:38 | 45.85511 | 14.71761 | 156° | 117km/h | 10276m | 4.4m/s | 0°C | 0% | 0hPa | 0V | 00:00:00 | 00:00:00 | 00:00:00 | |
| 9A1FER-3 | 2026-09-03 12:04:24 | 45.85895 | 14.71530 | 157° | 117km/h | 10212m | 3.6m/s | 0°C | 0% | 0hPa | 0V | 00:00:00 | 00:00:00 | 00:00:00 | |
| 9A1FER-15 | 2026-09-03 12:04:23 | 45.85923 | 14.71512 | 156° | 117km/h | 10207m | 5.3m/s | 0°C | 0% | 0hPa | 0V | 00:00:00 | 00:00:00 | 00:00:00 | |
| 9A1FER-3 | 2026-09-03 12:04:09 | 45.86302 | 14.71277 | 158° | 115km/h | 10141m | 3.5m/s | 0°C | 0% | 0hPa | 0V | 00:00:00 | 00:00:00 | 00:00:00 | |
| 9A1FER-15 | 2026-09-03 12:04:08 | 45.86329 | 14.71261 | 157° | 113km/h | 10137m | 4.6m/s | 0°C | 0% | 0hPa | 0V | 00:00:00 | 00:00:00 | 00:00:00 | |
| 9A1FER-3 | 2026-09-03 12:03:54 | 45.86701 | 14.71023 | 157° | 113km/h | 10073m | 2.6m/s | 0°C | 0% | 0hPa | 0V | 00:00:00 | 00:00:00 | 00:00:00 | |
| 9A1FER-10 | 2026-09-03 12:03:53 | 45.86727 | 14.71007 | 158° | 111km/h | 10069m | 5.0m/s | 0°C | 0% | 0hPa | 0V | 00:00:00 | 00:00:00 | 00:00:00 | |
| 9A1FER-15 | 2026-09-03 12:03:51 | 45.86781 | 14.70975 | 158° | 113km/h | 10058m | 5.7m/s | 0°C | 0% | 0hPa | 0V | 00:00:00 | 00:00:00 | 00:00:00 | |
| 9A1FER-3 | 2026-09-03 12:03:39 | 45.87098 | 14.70785 | 153° | 108km/h | 10002m | 4.0m/s | 0°C | 0% | 0hPa | 0V | 00:00:00 | 00:00:00 | 00:00:00 | |
| 9A1FER-15 | 2026-09-03 12:03:36 | 45.87170 | 14.70732 | 156° | 110km/h | 9990m | 3.3m/s | 0°C | 0% | 0hPa | 0V | 00:00:00 | 00:00:00 | 00:00:00 | |
| 9A1FER-10 | 2026-09-03 12:03:28 | 45.87369 | 14.70596 | 152° | 110km/h | 9946m | 3.2m/s | 0°C | 0% | 0hPa | 0V | 00:00:00 | 00:00:00 | 00:00:00 | |
| 9A1FER-3 | 2026-09-03 12:03:24 | 45.87466 | 14.70528 | 156° | 108km/h | 9924m | 3.6m/s | 0°C | 0% | 0hPa | 0V | 00:00:00 | 00:00:00 | 00:00:00 | |
| 9A1FER-15 | 2026-09-03 12:03:21 | 45.87544 | 14.70483 | 158° | 108km/h | 9910m | 4.9m/s | 0°C | 0% | 0hPa | 0V | 00:00:00 | 00:00:00 | 00:00:00 | |
| 9A1FER-10 | 2026-09-03 12:03:13 | 45.87766 | 14.70334 | 156° | 108km/h | 9868m | 5.9m/s | 0°C | 0% | 0hPa | 0V | 00:00:00 | 00:00:00 | 00:00:00 | |
| 9A1FER-3 | 2026-09-03 12:03:09 | 45.87840 | 14.70282 | 154° | 106km/h | 9854m | 3.8m/s | 0°C | 0% | 0hPa | 0V | 00:00:00 | 00:00:00 | 00:00:00 | |
| 9A1FER-15 | 2026-09-03 12:03:06 | 45.87912 | 14.70227 | 154° | 106km/h | 9842m | 5.0m/s | 0°C | 0% | 0hPa | 0V | 00:00:00 | 00:00:00 | 00:00:00 | |
| 9A1FER-3 | 2026-09-03 12:02:54 | 45.88202 | 14.70027 | 154° | 104km/h | 9789m | 4.0m/s | 0°C | 0% | 0hPa | 0V | 00:00:00 | 00:00:00 | 00:00:00 | |
| 9A1FER-15 | 2026-09-03 12:02:51 | 45.88274 | 14.69974 | 153° | 106km/h | 9775m | 5.9m/s | 0°C | 0% | 0hPa | 0V | 00:00:00 | 00:00:00 | 00:00:00 | |
| 9A1FER-3 | 2026-09-03 12:02:39 | 45.88551 | 14.69771 | 156° | 106km/h | 9723m | 3.1m/s | 0°C | 0% | 0hPa | 0V | 00:00:00 | 00:00:00 | 00:00:00 | |
| 9A1FER-15 | 2026-09-03 12:02:36 | 45.88627 | 14.69718 | 153° | 108km/h | 9711m | 4.4m/s | 0°C | 0% | 0hPa | 0V | 00:00:00 | 00:00:00 | 00:00:00 | |
| 9A1FER-10 | 2026-09-03 12:02:01 | 45.89449 | 14.69107 | 152° | 106km/h | 9560m | 6.2m/s | 0°C | 0% | 0hPa | 0V | 00:00:00 | 00:00:00 | 00:00:00 | |
| 9A1FER-15 | 2026-09-03 12:01:55 | 45.89592 | 14.68999 | 153° | 106km/h | 9533m | 4.5m/s | 0°C | 0% | 0hPa | 0V | 00:00:00 | 00:00:00 | 00:00:00 | |
| 9A1FER-3 | 2026-09-03 12:01:44 | 45.89857 | 14.68806 | 153° | 108km/h | 9487m | 4.1m/s | 0°C | 0% | 0hPa | 0V | 00:00:00 | 00:00:00 | 00:00:00 | |
| 9A1FER-15 | 2026-09-03 12:01:40 | 45.89953 | 14.68732 | 152° | 108km/h | 9471m | 3.0m/s | 0°C | 0% | 0hPa | 0V | 00:00:00 | 00:00:00 | 00:00:00 | |
| 9A1FER-15 | 2026-09-03 12:01:22 | 45.90382 | 14.68398 | 151° | 108km/h | 9394m | 6.0m/s | 0°C | 0% | 0hPa | 0V | 00:00:00 | 00:00:00 | 00:00:00 | |
| 9A1FER-15 | 2026-09-03 12:01:04 | 45.90811 | 14.68070 | 151° | 108km/h | 9316m | 3.8m/s | 0°C | 0% | 0hPa | 0V | 00:00:00 | 00:00:00 | 00:00:00 | |
| 9A1FER-15 | 2026-09-03 12:00:49 | 45.91172 | 14.67786 | 154° | 110km/h | 9250m | 3.7m/s | 0°C | 0% | 0hPa | 0V | 00:00:00 | 00:00:00 | 00:00:00 | |
| 9A1FER-3 | 2026-09-03 12:00:47 | 45.91222 | 14.67750 | 155° | 106km/h | 9241m | 3.1m/s | 0°C | 0% | 0hPa | 0V | 00:00:00 | 00:00:00 | 00:00:00 | |
| 9A1FER-15 | 2026-09-03 12:00:31 | 45.91609 | 14.67446 | 156° | 102km/h | 9170m | 4.5m/s | 0°C | 0% | 0hPa | 0V | 00:00:00 | 00:00:00 | 00:00:00 | |
| 9A1FER-3 | 2026-09-03 11:59:51 | 45.92527 | 14.66706 | 148° | 97km/h | 8958m | 2.0m/s | 0°C | 0% | 0hPa | 0V | 00:00:00 | 00:00:00 | 00:00:00 | |
| 9A1FER-15 | 2026-09-03 11:59:48 | 45.92596 | 14.66667 | 156° | 108km/h | 8940m | 6.3m/s | 0°C | 0% | 0hPa | 0V | 00:00:00 | 00:00:00 | 00:00:00 | |
| 9A1FER-15 | 2026-09-03 11:59:33 | 45.92939 | 14.66370 | 150° | 99km/h | 8852m | 7.5m/s | 0°C | 0% | 0hPa | 0V | 00:00:00 | 00:00:00 | 00:00:00 | |
| 9A1FER-15 | 2026-09-03 11:59:18 | 45.93271 | 14.66102 | 151° | 95km/h | 8781m | 4.1m/s | 0°C | 0% | 0hPa | 0V | 00:00:00 | 00:00:00 | 00:00:00 | |
| 9A1FER-10 | 2026-09-03 11:59:14 | 45.93356 | 14.66035 | 152° | 91km/h | 8766m | 5.0m/s | 0°C | 0% | 0hPa | 0V | 00:00:00 | 00:00:00 | 00:00:00 | |
| 9A1FER-15 | 2026-09-03 11:59:02 | 45.93599 | 14.65836 | 149° | 91km/h | 8704m | 6.7m/s | 0°C | 0% | 0hPa | 0V | 00:00:00 | 00:00:00 | 00:00:00 | |
| 9A1FER-10 | 2026-09-03 11:58:56 | 45.93717 | 14.65731 | 156° | 91km/h | 8678m | 4.2m/s | 0°C | 0% | 0hPa | 0V | 00:00:00 | 00:00:00 | 00:00:00 | |
| 9A1FER-15 | 2026-09-03 11:58:47 | 45.93895 | 14.65580 | 149° | 89km/h | 8635m | 5.3m/s | 0°C | 0% | 0hPa | 0V | 00:00:00 | 00:00:00 | 00:00:00 | |
| 9A1FER-10 | 2026-09-03 11:58:41 | 45.94018 | 14.65475 | 151° | 89km/h | 8600m | 4.8m/s | 0°C | 0% | 0hPa | 0V | 00:00:00 | 00:00:00 | 00:00:00 | |
| 9A1FER-3 | 2026-09-03 11:58:32 | 45.94188 | 14.65326 | 145° | 88km/h | 8554m | 1.4m/s | 0°C | 0% | 0hPa | 0V | 00:00:00 | 00:00:00 | 00:00:00 | |
| 9A1FER-15 | 2026-09-03 11:58:29 | 45.94243 | 14.65268 | 150° | 88km/h | 8539m | 3.6m/s | 0°C | 0% | 0hPa | 0V | 00:00:00 | 00:00:00 | 00:00:00 | |
| 9A1FER-10 | 2026-09-03 11:58:26 | 45.94305 | 14.65222 | 157° | 88km/h | 8522m | 4.4m/s | 0°C | 0% | 0hPa | 0V | 00:00:00 | 00:00:00 | 00:00:00 | |
| 9A1FER-3 | 2026-09-03 11:58:17 | 45.94476 | 14.65091 | 155° | 88km/h | 8464m | 5.2m/s | 0°C | 0% | 0hPa | 0V | 00:00:00 | 00:00:00 | 00:00:00 | |
| 9A1FER-15 | 2026-09-03 11:58:14 | 45.94535 | 14.65043 | 146° | 89km/h | 8451m | 2.2m/s | 0°C | 0% | 0hPa | 0V | 00:00:00 | 00:00:00 | 00:00:00 | |
| 9A1FER-10 | 2026-09-03 11:58:11 | 45.94595 | 14.64990 | 155° | 86km/h | 8439m | 5.1m/s | 0°C | 0% | 0hPa | 0V | 00:00:00 | 00:00:00 | 00:00:00 | |
| 9A1FER-3 | 2026-09-03 11:58:01 | 45.94788 | 14.64841 | 151° | 86km/h | 8387m | 4.2m/s | 0°C | 0% | 0hPa | 0V | 00:00:00 | 00:00:00 | 00:00:00 | |
| 9A1FER-15 | 2026-09-03 11:57:59 | 45.94825 | 14.64810 | 149° | 86km/h | 8379m | 3.2m/s | 0°C | 0% | 0hPa | 0V | 00:00:00 | 00:00:00 | 00:00:00 | |
| 9A1FER-10 | 2026-09-03 11:57:56 | 45.94878 | 14.64762 | 149° | 86km/h | 8368m | 4.5m/s | 0°C | 0% | 0hPa | 0V | 00:00:00 | 00:00:00 | 00:00:00 | |
| 9A1FER-3 | 2026-09-03 11:57:46 | 45.95071 | 14.64606 | 152° | 84km/h | 8323m | 4.9m/s | 0°C | 0% | 0hPa | 0V | 00:00:00 | 00:00:00 | 00:00:00 | |
| 9A1FER-15 | 2026-09-03 11:57:44 | 45.95107 | 14.64573 | 146° | 84km/h | 8314m | 3.7m/s | 0°C | 0% | 0hPa | 0V | 00:00:00 | 00:00:00 | 00:00:00 | |
| 9A1FER-10 | 2026-09-03 11:57:41 | 45.95162 | 14.64524 | 150° | 84km/h | 8301m | 3.2m/s | 0°C | 0% | 0hPa | 0V | 00:00:00 | 00:00:00 | 00:00:00 | |
| 9A1FER-3 | 2026-09-03 11:57:31 | 45.95345 | 14.64377 | 150° | 86km/h | 8261m | 4.0m/s | 0°C | 0% | 0hPa | 0V | 00:00:00 | 00:00:00 | 00:00:00 | |
| 9A1FER-15 | 2026-09-03 11:57:29 | 45.95382 | 14.64345 | 148° | 82km/h | 8251m | 3.3m/s | 0°C | 0% | 0hPa | 0V | 00:00:00 | 00:00:00 | 00:00:00 | |
| 9A1FER-10 | 2026-09-03 11:57:26 | 45.95435 | 14.64303 | 151° | 88km/h | 8238m | 5.3m/s | 0°C | 0% | 0hPa | 0V | 00:00:00 | 00:00:00 | 00:00:00 | |
| 9A1FER-3 | 2026-09-03 11:57:16 | 45.95617 | 14.64140 | 154° | 86km/h | 8194m | 4.4m/s | 0°C | 0% | 0hPa | 0V | 00:00:00 | 00:00:00 | 00:00:00 | |
| 9A1FER-15 | 2026-09-03 11:57:14 | 45.95652 | 14.64113 | 149° | 86km/h | 8186m | 2.4m/s | 0°C | 0% | 0hPa | 0V | 00:00:00 | 00:00:00 | 00:00:00 | |
| 9A1FER-10 | 2026-09-03 11:57:10 | 45.95723 | 14.64043 | 144° | 86km/h | 8168m | 4.6m/s | 0°C | 0% | 0hPa | 0V | 00:00:00 | 00:00:00 | 00:00:00 | |
| 9A1FER-15 | 2026-09-03 11:56:59 | 45.95928 | 14.63866 | 145° | 86km/h | 8114m | 5.9m/s | 0°C | 0% | 0hPa | 0V | 00:00:00 | 00:00:00 | 00:00:00 | |
| 9A1FER-10 | 2026-09-03 11:56:55 | 45.96002 | 14.63793 | 149° | 82km/h | 8093m | 3.1m/s | 0°C | 0% | 0hPa | 0V | 00:00:00 | 00:00:00 | 00:00:00 | |
| 9A1FER-3 | 2026-09-03 11:56:43 | 45.96216 | 14.63610 | 148° | 82km/h | 8024m | 3.5m/s | 0°C | 0% | 0hPa | 0V | 00:00:00 | 00:00:00 | 00:00:00 | |
| OE3JTB-15 | 2026-09-03 11:56:37 | 45.96321 | 14.63514 | 148° | 80km/h | 7996m | 3.4m/s | 0°C | 0% | 0hPa | 0V | 00:00:00 | 00:00:00 | 00:00:00 | |
| 9A1FER-15 | 2026-09-03 11:56:33 | 45.96392 | 14.63457 | 150° | 82km/h | 7980m | 2.6m/s | 0°C | 0% | 0hPa | 0V | 00:00:00 | 00:00:00 | 00:00:00 | |
| 9A1FER-3 | 2026-09-03 11:56:27 | 45.96499 | 14.63358 | 148° | 80km/h | 7954m | 4.0m/s | 0°C | 0% | 0hPa | 0V | 00:00:00 | 00:00:00 | 00:00:00 | |
| 9A1FER-10 | 2026-09-03 11:56:22 | 45.96580 | 14.63279 | 146° | 80km/h | 7934m | 3.5m/s | 0°C | 0% | 0hPa | 0V | 00:00:00 | 00:00:00 | 00:00:00 | |
| 9A1FER-15 | 2026-09-03 11:56:18 | 45.96651 | 14.63223 | 152° | 82km/h | 7916m | 4.4m/s | 0°C | 0% | 0hPa | 0V | 00:00:00 | 00:00:00 | 00:00:00 | |
| 9A1FER-3 | 2026-09-03 11:56:12 | 45.96753 | 14.63122 | 151° | 77km/h | 7892m | 5.5m/s | 0°C | 0% | 0hPa | 0V | 00:00:00 | 00:00:00 | 00:00:00 |